<?xml version="1.0" encoding="UTF-8" standalone="no" ?>
<gpx xmlns="http://www.topografix.com/GPX/1/1" xmlns:xsi="http://www.w3.org/2001/XMLSchema-instance" xsi:schemaLocation="http://www.topografix.com/GPX/1/1 http://www.topografix.com/GPX/1/1/gpx.xsd" version="1.1" creator="VisuGPX - https://www.visugpx.com">
  <metadata>
    <name>VILLECROZE TOURTOUR</name>
    <desc><![CDATA[Rando au départ de Villecroze vers Tourtour et retour pa les Alumines]]></desc>
  </metadata>
  <trk>
    <name><![CDATA[Tracé actuel: 21 OCT 2016 08:34]]></name>
    <trkseg>
      <trkpt lat="43.58314" lon="6.27834">
        <ele>358.71</ele>
        <time>2016-10-21T06:34:33Z</time>
      </trkpt>
      <trkpt lat="43.58314" lon="6.27835">
        <ele>356.79</ele>
        <time>2016-10-21T06:34:34Z</time>
      </trkpt>
      <trkpt lat="43.5831" lon="6.27838">
        <ele>356.31</ele>
        <time>2016-10-21T06:34:54Z</time>
      </trkpt>
      <trkpt lat="43.58296" lon="6.27851">
        <ele>357.27</ele>
        <time>2016-10-21T06:35:09Z</time>
      </trkpt>
      <trkpt lat="43.58285" lon="6.27867">
        <ele>358.23</ele>
        <time>2016-10-21T06:35:22Z</time>
      </trkpt>
      <trkpt lat="43.58277" lon="6.27888">
        <ele>361.11</ele>
        <time>2016-10-21T06:35:36Z</time>
      </trkpt>
      <trkpt lat="43.58273" lon="6.27913">
        <ele>363.04</ele>
        <time>2016-10-21T06:35:50Z</time>
      </trkpt>
      <trkpt lat="43.58276" lon="6.27918">
        <ele>364.48</ele>
        <time>2016-10-21T06:35:53Z</time>
      </trkpt>
      <trkpt lat="43.58285" lon="6.27942">
        <ele>366.4</ele>
        <time>2016-10-21T06:36:08Z</time>
      </trkpt>
      <trkpt lat="43.58291" lon="6.27955">
        <ele>369.76</ele>
        <time>2016-10-21T06:36:22Z</time>
      </trkpt>
      <trkpt lat="43.58295" lon="6.27965">
        <ele>373.13</ele>
        <time>2016-10-21T06:36:33Z</time>
      </trkpt>
      <trkpt lat="43.58301" lon="6.2798">
        <ele>376.01</ele>
        <time>2016-10-21T06:36:48Z</time>
      </trkpt>
      <trkpt lat="43.58304" lon="6.27992">
        <ele>379.38</ele>
        <time>2016-10-21T06:37:00Z</time>
      </trkpt>
      <trkpt lat="43.58302" lon="6.27999">
        <ele>380.34</ele>
        <time>2016-10-21T06:37:08Z</time>
      </trkpt>
      <trkpt lat="43.583" lon="6.28001">
        <ele>380.82</ele>
        <time>2016-10-21T06:37:10Z</time>
      </trkpt>
      <trkpt lat="43.58299" lon="6.28003">
        <ele>380.82</ele>
        <time>2016-10-21T06:37:12Z</time>
      </trkpt>
      <trkpt lat="43.58297" lon="6.28024">
        <ele>383.7</ele>
        <time>2016-10-21T06:37:27Z</time>
      </trkpt>
      <trkpt lat="43.58297" lon="6.28026">
        <ele>383.7</ele>
        <time>2016-10-21T06:37:28Z</time>
      </trkpt>
      <trkpt lat="43.58294" lon="6.28033">
        <ele>384.66</ele>
        <time>2016-10-21T06:37:35Z</time>
      </trkpt>
      <trkpt lat="43.58294" lon="6.28036">
        <ele>385.15</ele>
        <time>2016-10-21T06:37:37Z</time>
      </trkpt>
      <trkpt lat="43.58292" lon="6.28041">
        <ele>385.63</ele>
        <time>2016-10-21T06:37:41Z</time>
      </trkpt>
      <trkpt lat="43.58292" lon="6.28045">
        <ele>386.59</ele>
        <time>2016-10-21T06:37:44Z</time>
      </trkpt>
      <trkpt lat="43.58291" lon="6.28055">
        <ele>388.03</ele>
        <time>2016-10-21T06:37:52Z</time>
      </trkpt>
      <trkpt lat="43.58286" lon="6.28071">
        <ele>390.43</ele>
        <time>2016-10-21T06:38:05Z</time>
      </trkpt>
      <trkpt lat="43.58283" lon="6.28081">
        <ele>391.87</ele>
        <time>2016-10-21T06:38:13Z</time>
      </trkpt>
      <trkpt lat="43.58278" lon="6.28098">
        <ele>393.8</ele>
        <time>2016-10-21T06:38:27Z</time>
      </trkpt>
      <trkpt lat="43.58271" lon="6.28115">
        <ele>396.68</ele>
        <time>2016-10-21T06:38:42Z</time>
      </trkpt>
      <trkpt lat="43.58271" lon="6.28114">
        <ele>396.68</ele>
        <time>2016-10-21T06:39:02Z</time>
      </trkpt>
      <trkpt lat="43.5827" lon="6.28114">
        <ele>396.68</ele>
        <time>2016-10-21T06:39:18Z</time>
      </trkpt>
      <trkpt lat="43.5827" lon="6.28115">
        <ele>396.68</ele>
        <time>2016-10-21T06:39:31Z</time>
      </trkpt>
      <trkpt lat="43.58265" lon="6.28128">
        <ele>397.64</ele>
        <time>2016-10-21T06:39:40Z</time>
      </trkpt>
      <trkpt lat="43.58261" lon="6.28134">
        <ele>397.64</ele>
        <time>2016-10-21T06:39:45Z</time>
      </trkpt>
      <trkpt lat="43.58259" lon="6.28138">
        <ele>398.12</ele>
        <time>2016-10-21T06:39:47Z</time>
      </trkpt>
      <trkpt lat="43.58258" lon="6.28144">
        <ele>398.6</ele>
        <time>2016-10-21T06:39:50Z</time>
      </trkpt>
      <trkpt lat="43.5825" lon="6.28154">
        <ele>400.05</ele>
        <time>2016-10-21T06:40:00Z</time>
      </trkpt>
      <trkpt lat="43.58245" lon="6.2816">
        <ele>399.57</ele>
        <time>2016-10-21T06:40:13Z</time>
      </trkpt>
      <trkpt lat="43.58244" lon="6.28162">
        <ele>400.05</ele>
        <time>2016-10-21T06:40:15Z</time>
      </trkpt>
      <trkpt lat="43.58241" lon="6.28168">
        <ele>400.05</ele>
        <time>2016-10-21T06:40:19Z</time>
      </trkpt>
      <trkpt lat="43.58233" lon="6.28178">
        <ele>400.53</ele>
        <time>2016-10-21T06:40:27Z</time>
      </trkpt>
      <trkpt lat="43.58227" lon="6.28192">
        <ele>401.49</ele>
        <time>2016-10-21T06:40:36Z</time>
      </trkpt>
      <trkpt lat="43.58225" lon="6.28197">
        <ele>401.97</ele>
        <time>2016-10-21T06:40:40Z</time>
      </trkpt>
      <trkpt lat="43.58222" lon="6.28215">
        <ele>403.89</ele>
        <time>2016-10-21T06:40:54Z</time>
      </trkpt>
      <trkpt lat="43.58223" lon="6.28225">
        <ele>404.85</ele>
        <time>2016-10-21T06:41:01Z</time>
      </trkpt>
      <trkpt lat="43.58219" lon="6.28238">
        <ele>406.77</ele>
        <time>2016-10-21T06:41:12Z</time>
      </trkpt>
      <trkpt lat="43.58214" lon="6.28254">
        <ele>409.18</ele>
        <time>2016-10-21T06:41:24Z</time>
      </trkpt>
      <trkpt lat="43.58214" lon="6.28261">
        <ele>410.14</ele>
        <time>2016-10-21T06:41:29Z</time>
      </trkpt>
      <trkpt lat="43.58221" lon="6.2826">
        <ele>411.58</ele>
        <time>2016-10-21T06:41:37Z</time>
      </trkpt>
      <trkpt lat="43.58235" lon="6.28254">
        <ele>413.02</ele>
        <time>2016-10-21T06:41:50Z</time>
      </trkpt>
      <trkpt lat="43.5825" lon="6.28246">
        <ele>415.91</ele>
        <time>2016-10-21T06:42:06Z</time>
      </trkpt>
      <trkpt lat="43.58263" lon="6.28234">
        <ele>418.79</ele>
        <time>2016-10-21T06:42:21Z</time>
      </trkpt>
      <trkpt lat="43.58268" lon="6.28224">
        <ele>419.75</ele>
        <time>2016-10-21T06:42:27Z</time>
      </trkpt>
      <trkpt lat="43.58277" lon="6.28219">
        <ele>422.64</ele>
        <time>2016-10-21T06:42:39Z</time>
      </trkpt>
      <trkpt lat="43.58285" lon="6.28212">
        <ele>425.04</ele>
        <time>2016-10-21T06:42:48Z</time>
      </trkpt>
      <trkpt lat="43.58294" lon="6.28204">
        <ele>427.44</ele>
        <time>2016-10-21T06:43:00Z</time>
      </trkpt>
      <trkpt lat="43.58297" lon="6.28201">
        <ele>427.92</ele>
        <time>2016-10-21T06:43:14Z</time>
      </trkpt>
      <trkpt lat="43.58296" lon="6.282">
        <ele>427.92</ele>
        <time>2016-10-21T06:43:24Z</time>
      </trkpt>
      <trkpt lat="43.58303" lon="6.28195">
        <ele>429.37</ele>
        <time>2016-10-21T06:43:42Z</time>
      </trkpt>
      <trkpt lat="43.58312" lon="6.2819">
        <ele>432.25</ele>
        <time>2016-10-21T06:43:54Z</time>
      </trkpt>
      <trkpt lat="43.58315" lon="6.28188">
        <ele>432.25</ele>
        <time>2016-10-21T06:43:57Z</time>
      </trkpt>
      <trkpt lat="43.58319" lon="6.28188">
        <ele>432.73</ele>
        <time>2016-10-21T06:44:01Z</time>
      </trkpt>
      <trkpt lat="43.58321" lon="6.28186">
        <ele>433.21</ele>
        <time>2016-10-21T06:44:03Z</time>
      </trkpt>
      <trkpt lat="43.58335" lon="6.28183">
        <ele>437.06</ele>
        <time>2016-10-21T06:44:19Z</time>
      </trkpt>
      <trkpt lat="43.58348" lon="6.28179">
        <ele>439.94</ele>
        <time>2016-10-21T06:44:32Z</time>
      </trkpt>
      <trkpt lat="43.58359" lon="6.28172">
        <ele>441.86</ele>
        <time>2016-10-21T06:44:46Z</time>
      </trkpt>
      <trkpt lat="43.58359" lon="6.28177">
        <ele>443.31</ele>
        <time>2016-10-21T06:44:53Z</time>
      </trkpt>
      <trkpt lat="43.58358" lon="6.28179">
        <ele>443.79</ele>
        <time>2016-10-21T06:44:55Z</time>
      </trkpt>
      <trkpt lat="43.58354" lon="6.28185">
        <ele>444.27</ele>
        <time>2016-10-21T06:45:00Z</time>
      </trkpt>
      <trkpt lat="43.58353" lon="6.28188">
        <ele>444.75</ele>
        <time>2016-10-21T06:45:02Z</time>
      </trkpt>
      <trkpt lat="43.58348" lon="6.28196">
        <ele>445.23</ele>
        <time>2016-10-21T06:45:09Z</time>
      </trkpt>
      <trkpt lat="43.58347" lon="6.282">
        <ele>445.71</ele>
        <time>2016-10-21T06:45:12Z</time>
      </trkpt>
      <trkpt lat="43.58354" lon="6.28222">
        <ele>447.15</ele>
        <time>2016-10-21T06:45:27Z</time>
      </trkpt>
      <trkpt lat="43.58356" lon="6.28244">
        <ele>448.59</ele>
        <time>2016-10-21T06:45:43Z</time>
      </trkpt>
      <trkpt lat="43.58354" lon="6.2825">
        <ele>449.07</ele>
        <time>2016-10-21T06:45:47Z</time>
      </trkpt>
      <trkpt lat="43.58344" lon="6.28258">
        <ele>451</ele>
        <time>2016-10-21T06:46:04Z</time>
      </trkpt>
      <trkpt lat="43.58343" lon="6.28259">
        <ele>451</ele>
        <time>2016-10-21T06:46:30Z</time>
      </trkpt>
      <trkpt lat="43.58337" lon="6.28264">
        <ele>451.96</ele>
        <time>2016-10-21T06:46:41Z</time>
      </trkpt>
      <trkpt lat="43.58337" lon="6.28267">
        <ele>452.44</ele>
        <time>2016-10-21T06:47:03Z</time>
      </trkpt>
      <trkpt lat="43.58336" lon="6.28269">
        <ele>452.92</ele>
        <time>2016-10-21T06:47:05Z</time>
      </trkpt>
      <trkpt lat="43.58335" lon="6.28273">
        <ele>453.4</ele>
        <time>2016-10-21T06:47:08Z</time>
      </trkpt>
      <trkpt lat="43.58339" lon="6.28283">
        <ele>454.84</ele>
        <time>2016-10-21T06:47:19Z</time>
      </trkpt>
      <trkpt lat="43.5835" lon="6.28284">
        <ele>457.24</ele>
        <time>2016-10-21T06:47:33Z</time>
      </trkpt>
      <trkpt lat="43.58357" lon="6.28285">
        <ele>458.69</ele>
        <time>2016-10-21T06:47:42Z</time>
      </trkpt>
      <trkpt lat="43.58374" lon="6.28287">
        <ele>461.57</ele>
        <time>2016-10-21T06:47:58Z</time>
      </trkpt>
      <trkpt lat="43.58377" lon="6.28287">
        <ele>462.53</ele>
        <time>2016-10-21T06:48:01Z</time>
      </trkpt>
      <trkpt lat="43.5838" lon="6.28287">
        <ele>463.01</ele>
        <time>2016-10-21T06:48:03Z</time>
      </trkpt>
      <trkpt lat="43.58385" lon="6.28289">
        <ele>464.45</ele>
        <time>2016-10-21T06:48:08Z</time>
      </trkpt>
      <trkpt lat="43.58388" lon="6.28291">
        <ele>464.93</ele>
        <time>2016-10-21T06:48:25Z</time>
      </trkpt>
      <trkpt lat="43.58388" lon="6.28291">
        <ele>464.93</ele>
        <time>2016-10-21T06:48:55Z</time>
      </trkpt>
      <trkpt lat="43.58388" lon="6.2829">
        <ele>464.93</ele>
        <time>2016-10-21T06:49:17Z</time>
      </trkpt>
      <trkpt lat="43.58389" lon="6.2829">
        <ele>464.93</ele>
        <time>2016-10-21T06:49:43Z</time>
      </trkpt>
      <trkpt lat="43.58389" lon="6.2829">
        <ele>464.93</ele>
        <time>2016-10-21T06:50:05Z</time>
      </trkpt>
      <trkpt lat="43.58388" lon="6.2829">
        <ele>461.57</ele>
        <time>2016-10-21T06:50:21Z</time>
      </trkpt>
      <trkpt lat="43.58388" lon="6.2829">
        <ele>468.3</ele>
        <time>2016-10-21T06:50:22Z</time>
      </trkpt>
      <trkpt lat="43.58388" lon="6.2829">
        <ele>465.42</ele>
        <time>2016-10-21T06:50:23Z</time>
      </trkpt>
      <trkpt lat="43.58388" lon="6.2829">
        <ele>464.93</ele>
        <time>2016-10-21T06:50:49Z</time>
      </trkpt>
      <trkpt lat="43.58389" lon="6.2829">
        <ele>464.93</ele>
        <time>2016-10-21T06:51:09Z</time>
      </trkpt>
      <trkpt lat="43.58389" lon="6.28289">
        <ele>464.45</ele>
        <time>2016-10-21T06:51:42Z</time>
      </trkpt>
      <trkpt lat="43.58389" lon="6.28288">
        <ele>464.45</ele>
        <time>2016-10-21T06:52:09Z</time>
      </trkpt>
      <trkpt lat="43.5839" lon="6.28287">
        <ele>464.45</ele>
        <time>2016-10-21T06:52:39Z</time>
      </trkpt>
      <trkpt lat="43.5839" lon="6.28288">
        <ele>464.45</ele>
        <time>2016-10-21T06:53:06Z</time>
      </trkpt>
      <trkpt lat="43.58389" lon="6.28287">
        <ele>464.45</ele>
        <time>2016-10-21T06:53:42Z</time>
      </trkpt>
      <trkpt lat="43.58389" lon="6.28287">
        <ele>464.45</ele>
        <time>2016-10-21T06:54:10Z</time>
      </trkpt>
      <trkpt lat="43.58388" lon="6.28286">
        <ele>464.45</ele>
        <time>2016-10-21T06:54:43Z</time>
      </trkpt>
      <trkpt lat="43.58388" lon="6.28285">
        <ele>464.45</ele>
        <time>2016-10-21T06:55:12Z</time>
      </trkpt>
      <trkpt lat="43.58386" lon="6.28286">
        <ele>464.45</ele>
        <time>2016-10-21T06:55:49Z</time>
      </trkpt>
      <trkpt lat="43.58385" lon="6.28286">
        <ele>464.45</ele>
        <time>2016-10-21T06:56:30Z</time>
      </trkpt>
      <trkpt lat="43.58385" lon="6.28287">
        <ele>464.45</ele>
        <time>2016-10-21T06:57:06Z</time>
      </trkpt>
      <trkpt lat="43.58386" lon="6.28285">
        <ele>464.93</ele>
        <time>2016-10-21T06:57:27Z</time>
      </trkpt>
      <trkpt lat="43.58386" lon="6.28285">
        <ele>464.93</ele>
        <time>2016-10-21T06:57:53Z</time>
      </trkpt>
      <trkpt lat="43.58386" lon="6.28286">
        <ele>464.45</ele>
        <time>2016-10-21T06:58:18Z</time>
      </trkpt>
      <trkpt lat="43.58386" lon="6.28286">
        <ele>464.45</ele>
        <time>2016-10-21T06:58:55Z</time>
      </trkpt>
      <trkpt lat="43.58386" lon="6.28286">
        <ele>464.93</ele>
        <time>2016-10-21T06:59:25Z</time>
      </trkpt>
      <trkpt lat="43.58386" lon="6.28287">
        <ele>461.09</ele>
        <time>2016-10-21T06:59:38Z</time>
      </trkpt>
      <trkpt lat="43.58386" lon="6.28287">
        <ele>465.42</ele>
        <time>2016-10-21T06:59:39Z</time>
      </trkpt>
      <trkpt lat="43.58386" lon="6.28287">
        <ele>469.26</ele>
        <time>2016-10-21T06:59:40Z</time>
      </trkpt>
      <trkpt lat="43.58386" lon="6.28287">
        <ele>462.53</ele>
        <time>2016-10-21T06:59:41Z</time>
      </trkpt>
      <trkpt lat="43.58386" lon="6.28287">
        <ele>467.82</ele>
        <time>2016-10-21T06:59:42Z</time>
      </trkpt>
      <trkpt lat="43.58386" lon="6.28287">
        <ele>463.01</ele>
        <time>2016-10-21T06:59:47Z</time>
      </trkpt>
      <trkpt lat="43.58386" lon="6.28287">
        <ele>466.86</ele>
        <time>2016-10-21T06:59:48Z</time>
      </trkpt>
      <trkpt lat="43.58386" lon="6.28287">
        <ele>464.93</ele>
        <time>2016-10-21T07:00:10Z</time>
      </trkpt>
      <trkpt lat="43.58386" lon="6.28288">
        <ele>464.45</ele>
        <time>2016-10-21T07:00:26Z</time>
      </trkpt>
      <trkpt lat="43.58386" lon="6.28287">
        <ele>464.93</ele>
        <time>2016-10-21T07:00:54Z</time>
      </trkpt>
      <trkpt lat="43.58386" lon="6.28288">
        <ele>464.45</ele>
        <time>2016-10-21T07:01:23Z</time>
      </trkpt>
      <trkpt lat="43.58386" lon="6.28288">
        <ele>464.45</ele>
        <time>2016-10-21T07:01:45Z</time>
      </trkpt>
      <trkpt lat="43.58386" lon="6.28288">
        <ele>464.93</ele>
        <time>2016-10-21T07:01:52Z</time>
      </trkpt>
      <trkpt lat="43.58391" lon="6.28299">
        <ele>466.38</ele>
        <time>2016-10-21T07:02:05Z</time>
      </trkpt>
      <trkpt lat="43.58393" lon="6.28309">
        <ele>467.82</ele>
        <time>2016-10-21T07:02:13Z</time>
      </trkpt>
      <trkpt lat="43.58394" lon="6.28313">
        <ele>468.3</ele>
        <time>2016-10-21T07:02:16Z</time>
      </trkpt>
      <trkpt lat="43.58396" lon="6.28317">
        <ele>468.78</ele>
        <time>2016-10-21T07:02:22Z</time>
      </trkpt>
      <trkpt lat="43.58398" lon="6.28321">
        <ele>469.26</ele>
        <time>2016-10-21T07:02:25Z</time>
      </trkpt>
      <trkpt lat="43.58412" lon="6.28335">
        <ele>472.63</ele>
        <time>2016-10-21T07:02:40Z</time>
      </trkpt>
      <trkpt lat="43.58426" lon="6.28344">
        <ele>474.55</ele>
        <time>2016-10-21T07:02:54Z</time>
      </trkpt>
      <trkpt lat="43.58436" lon="6.28364">
        <ele>475.51</ele>
        <time>2016-10-21T07:03:08Z</time>
      </trkpt>
      <trkpt lat="43.58439" lon="6.28367">
        <ele>475.99</ele>
        <time>2016-10-21T07:03:11Z</time>
      </trkpt>
      <trkpt lat="43.58449" lon="6.2839">
        <ele>477.91</ele>
        <time>2016-10-21T07:03:26Z</time>
      </trkpt>
      <trkpt lat="43.58455" lon="6.28406">
        <ele>479.84</ele>
        <time>2016-10-21T07:03:36Z</time>
      </trkpt>
      <trkpt lat="43.58457" lon="6.28411">
        <ele>480.32</ele>
        <time>2016-10-21T07:03:39Z</time>
      </trkpt>
      <trkpt lat="43.58458" lon="6.28437">
        <ele>483.68</ele>
        <time>2016-10-21T07:03:55Z</time>
      </trkpt>
      <trkpt lat="43.58456" lon="6.28452">
        <ele>485.12</ele>
        <time>2016-10-21T07:04:04Z</time>
      </trkpt>
      <trkpt lat="43.58457" lon="6.2846">
        <ele>486.08</ele>
        <time>2016-10-21T07:04:09Z</time>
      </trkpt>
      <trkpt lat="43.58457" lon="6.28471">
        <ele>487.05</ele>
        <time>2016-10-21T07:04:16Z</time>
      </trkpt>
      <trkpt lat="43.58457" lon="6.28491">
        <ele>488.97</ele>
        <time>2016-10-21T07:04:30Z</time>
      </trkpt>
      <trkpt lat="43.58452" lon="6.28517">
        <ele>490.89</ele>
        <time>2016-10-21T07:04:45Z</time>
      </trkpt>
      <trkpt lat="43.58453" lon="6.28527">
        <ele>491.85</ele>
        <time>2016-10-21T07:04:51Z</time>
      </trkpt>
      <trkpt lat="43.58454" lon="6.28534">
        <ele>491.85</ele>
        <time>2016-10-21T07:04:55Z</time>
      </trkpt>
      <trkpt lat="43.58455" lon="6.28541">
        <ele>492.33</ele>
        <time>2016-10-21T07:04:58Z</time>
      </trkpt>
      <trkpt lat="43.58458" lon="6.28564">
        <ele>493.77</ele>
        <time>2016-10-21T07:05:11Z</time>
      </trkpt>
      <trkpt lat="43.58461" lon="6.28591">
        <ele>495.22</ele>
        <time>2016-10-21T07:05:26Z</time>
      </trkpt>
      <trkpt lat="43.58463" lon="6.28615">
        <ele>497.14</ele>
        <time>2016-10-21T07:05:42Z</time>
      </trkpt>
      <trkpt lat="43.58463" lon="6.28623">
        <ele>497.62</ele>
        <time>2016-10-21T07:05:46Z</time>
      </trkpt>
      <trkpt lat="43.5847" lon="6.28646">
        <ele>500.02</ele>
        <time>2016-10-21T07:06:00Z</time>
      </trkpt>
      <trkpt lat="43.5848" lon="6.28662">
        <ele>501.95</ele>
        <time>2016-10-21T07:06:11Z</time>
      </trkpt>
      <trkpt lat="43.58498" lon="6.28673">
        <ele>504.83</ele>
        <time>2016-10-21T07:06:26Z</time>
      </trkpt>
      <trkpt lat="43.58518" lon="6.28686">
        <ele>508.19</ele>
        <time>2016-10-21T07:06:43Z</time>
      </trkpt>
      <trkpt lat="43.58531" lon="6.28696">
        <ele>509.64</ele>
        <time>2016-10-21T07:06:55Z</time>
      </trkpt>
      <trkpt lat="43.58533" lon="6.28699">
        <ele>510.12</ele>
        <time>2016-10-21T07:06:57Z</time>
      </trkpt>
      <trkpt lat="43.58539" lon="6.28718">
        <ele>513</ele>
        <time>2016-10-21T07:07:11Z</time>
      </trkpt>
      <trkpt lat="43.5853" lon="6.28735">
        <ele>515.88</ele>
        <time>2016-10-21T07:07:26Z</time>
      </trkpt>
      <trkpt lat="43.58527" lon="6.28756">
        <ele>518.77</ele>
        <time>2016-10-21T07:07:42Z</time>
      </trkpt>
      <trkpt lat="43.58527" lon="6.28757">
        <ele>519.25</ele>
        <time>2016-10-21T07:07:43Z</time>
      </trkpt>
      <trkpt lat="43.58533" lon="6.28771">
        <ele>520.21</ele>
        <time>2016-10-21T07:07:52Z</time>
      </trkpt>
      <trkpt lat="43.58546" lon="6.28788">
        <ele>522.61</ele>
        <time>2016-10-21T07:08:06Z</time>
      </trkpt>
      <trkpt lat="43.58559" lon="6.28807">
        <ele>524.54</ele>
        <time>2016-10-21T07:08:21Z</time>
      </trkpt>
      <trkpt lat="43.5857" lon="6.28824">
        <ele>527.9</ele>
        <time>2016-10-21T07:08:35Z</time>
      </trkpt>
      <trkpt lat="43.58572" lon="6.28843">
        <ele>529.82</ele>
        <time>2016-10-21T07:08:50Z</time>
      </trkpt>
      <trkpt lat="43.58571" lon="6.28873">
        <ele>531.27</ele>
        <time>2016-10-21T07:09:07Z</time>
      </trkpt>
      <trkpt lat="43.58571" lon="6.2888">
        <ele>531.27</ele>
        <time>2016-10-21T07:09:11Z</time>
      </trkpt>
      <trkpt lat="43.58571" lon="6.28885">
        <ele>531.27</ele>
        <time>2016-10-21T07:09:14Z</time>
      </trkpt>
      <trkpt lat="43.58571" lon="6.28895">
        <ele>531.27</ele>
        <time>2016-10-21T07:09:20Z</time>
      </trkpt>
      <trkpt lat="43.58573" lon="6.28915">
        <ele>530.79</ele>
        <time>2016-10-21T07:09:33Z</time>
      </trkpt>
      <trkpt lat="43.58574" lon="6.28929">
        <ele>530.3</ele>
        <time>2016-10-21T07:09:41Z</time>
      </trkpt>
      <trkpt lat="43.58574" lon="6.28935">
        <ele>529.82</ele>
        <time>2016-10-21T07:09:44Z</time>
      </trkpt>
      <trkpt lat="43.58579" lon="6.28966">
        <ele>529.34</ele>
        <time>2016-10-21T07:10:01Z</time>
      </trkpt>
      <trkpt lat="43.58583" lon="6.28995">
        <ele>529.34</ele>
        <time>2016-10-21T07:10:16Z</time>
      </trkpt>
      <trkpt lat="43.58586" lon="6.29007">
        <ele>529.34</ele>
        <time>2016-10-21T07:10:23Z</time>
      </trkpt>
      <trkpt lat="43.58588" lon="6.29018">
        <ele>529.82</ele>
        <time>2016-10-21T07:10:28Z</time>
      </trkpt>
      <trkpt lat="43.58594" lon="6.29038">
        <ele>531.75</ele>
        <time>2016-10-21T07:10:39Z</time>
      </trkpt>
      <trkpt lat="43.58596" lon="6.29045">
        <ele>532.23</ele>
        <time>2016-10-21T07:10:43Z</time>
      </trkpt>
      <trkpt lat="43.58606" lon="6.29074">
        <ele>533.67</ele>
        <time>2016-10-21T07:11:00Z</time>
      </trkpt>
      <trkpt lat="43.58615" lon="6.29103">
        <ele>533.67</ele>
        <time>2016-10-21T07:11:15Z</time>
      </trkpt>
      <trkpt lat="43.58625" lon="6.29131">
        <ele>533.67</ele>
        <time>2016-10-21T07:11:30Z</time>
      </trkpt>
      <trkpt lat="43.58635" lon="6.29156">
        <ele>534.63</ele>
        <time>2016-10-21T07:11:44Z</time>
      </trkpt>
      <trkpt lat="43.58645" lon="6.29183">
        <ele>535.59</ele>
        <time>2016-10-21T07:11:59Z</time>
      </trkpt>
      <trkpt lat="43.58646" lon="6.292">
        <ele>535.11</ele>
        <time>2016-10-21T07:12:07Z</time>
      </trkpt>
      <trkpt lat="43.58648" lon="6.29204">
        <ele>535.11</ele>
        <time>2016-10-21T07:12:10Z</time>
      </trkpt>
      <trkpt lat="43.5865" lon="6.29204">
        <ele>535.11</ele>
        <time>2016-10-21T07:12:25Z</time>
      </trkpt>
      <trkpt lat="43.58651" lon="6.29204">
        <ele>535.11</ele>
        <time>2016-10-21T07:12:46Z</time>
      </trkpt>
      <trkpt lat="43.58649" lon="6.29208">
        <ele>535.11</ele>
        <time>2016-10-21T07:13:06Z</time>
      </trkpt>
      <trkpt lat="43.58648" lon="6.29218">
        <ele>535.11</ele>
        <time>2016-10-21T07:13:12Z</time>
      </trkpt>
      <trkpt lat="43.58648" lon="6.29247">
        <ele>535.11</ele>
        <time>2016-10-21T07:13:28Z</time>
      </trkpt>
      <trkpt lat="43.58648" lon="6.29253">
        <ele>535.11</ele>
        <time>2016-10-21T07:13:31Z</time>
      </trkpt>
      <trkpt lat="43.58651" lon="6.29264">
        <ele>535.11</ele>
        <time>2016-10-21T07:13:37Z</time>
      </trkpt>
      <trkpt lat="43.58652" lon="6.2927">
        <ele>535.11</ele>
        <time>2016-10-21T07:13:41Z</time>
      </trkpt>
      <trkpt lat="43.58653" lon="6.29274">
        <ele>535.11</ele>
        <time>2016-10-21T07:13:43Z</time>
      </trkpt>
      <trkpt lat="43.58655" lon="6.29282">
        <ele>535.59</ele>
        <time>2016-10-21T07:13:47Z</time>
      </trkpt>
      <trkpt lat="43.58661" lon="6.29316">
        <ele>536.55</ele>
        <time>2016-10-21T07:14:04Z</time>
      </trkpt>
      <trkpt lat="43.58661" lon="6.29341">
        <ele>535.11</ele>
        <time>2016-10-21T07:14:16Z</time>
      </trkpt>
      <trkpt lat="43.58667" lon="6.29355">
        <ele>535.11</ele>
        <time>2016-10-21T07:14:24Z</time>
      </trkpt>
      <trkpt lat="43.58689" lon="6.29372">
        <ele>535.59</ele>
        <time>2016-10-21T07:14:42Z</time>
      </trkpt>
      <trkpt lat="43.58709" lon="6.2938">
        <ele>536.55</ele>
        <time>2016-10-21T07:14:56Z</time>
      </trkpt>
      <trkpt lat="43.58728" lon="6.29398">
        <ele>538.48</ele>
        <time>2016-10-21T07:15:12Z</time>
      </trkpt>
      <trkpt lat="43.58735" lon="6.29404">
        <ele>539.44</ele>
        <time>2016-10-21T07:15:28Z</time>
      </trkpt>
      <trkpt lat="43.58736" lon="6.29404">
        <ele>539.44</ele>
        <time>2016-10-21T07:15:34Z</time>
      </trkpt>
      <trkpt lat="43.58739" lon="6.29406">
        <ele>539.44</ele>
        <time>2016-10-21T07:15:37Z</time>
      </trkpt>
      <trkpt lat="43.58756" lon="6.29426">
        <ele>541.36</ele>
        <time>2016-10-21T07:15:56Z</time>
      </trkpt>
      <trkpt lat="43.5875" lon="6.2945">
        <ele>542.8</ele>
        <time>2016-10-21T07:16:11Z</time>
      </trkpt>
      <trkpt lat="43.58745" lon="6.29482">
        <ele>544.24</ele>
        <time>2016-10-21T07:16:28Z</time>
      </trkpt>
      <trkpt lat="43.58749" lon="6.29493">
        <ele>545.2</ele>
        <time>2016-10-21T07:16:35Z</time>
      </trkpt>
      <trkpt lat="43.5876" lon="6.29515">
        <ele>546.65</ele>
        <time>2016-10-21T07:16:49Z</time>
      </trkpt>
      <trkpt lat="43.58773" lon="6.29539">
        <ele>547.13</ele>
        <time>2016-10-21T07:17:04Z</time>
      </trkpt>
      <trkpt lat="43.58782" lon="6.29557">
        <ele>547.13</ele>
        <time>2016-10-21T07:17:17Z</time>
      </trkpt>
      <trkpt lat="43.58784" lon="6.29568">
        <ele>546.65</ele>
        <time>2016-10-21T07:17:31Z</time>
      </trkpt>
      <trkpt lat="43.58786" lon="6.2957">
        <ele>546.65</ele>
        <time>2016-10-21T07:17:46Z</time>
      </trkpt>
      <trkpt lat="43.58789" lon="6.29572">
        <ele>546.17</ele>
        <time>2016-10-21T07:17:49Z</time>
      </trkpt>
      <trkpt lat="43.58797" lon="6.29578">
        <ele>545.69</ele>
        <time>2016-10-21T07:17:58Z</time>
      </trkpt>
      <trkpt lat="43.58805" lon="6.29584">
        <ele>545.2</ele>
        <time>2016-10-21T07:18:05Z</time>
      </trkpt>
      <trkpt lat="43.58819" lon="6.296">
        <ele>545.2</ele>
        <time>2016-10-21T07:18:18Z</time>
      </trkpt>
      <trkpt lat="43.58833" lon="6.29617">
        <ele>545.2</ele>
        <time>2016-10-21T07:18:31Z</time>
      </trkpt>
      <trkpt lat="43.58844" lon="6.29636">
        <ele>546.17</ele>
        <time>2016-10-21T07:18:43Z</time>
      </trkpt>
      <trkpt lat="43.58853" lon="6.29654">
        <ele>547.13</ele>
        <time>2016-10-21T07:18:57Z</time>
      </trkpt>
      <trkpt lat="43.58854" lon="6.29657">
        <ele>547.13</ele>
        <time>2016-10-21T07:19:03Z</time>
      </trkpt>
      <trkpt lat="43.58859" lon="6.29661">
        <ele>548.09</ele>
        <time>2016-10-21T07:19:09Z</time>
      </trkpt>
      <trkpt lat="43.58869" lon="6.29675">
        <ele>550.97</ele>
        <time>2016-10-21T07:19:25Z</time>
      </trkpt>
      <trkpt lat="43.58871" lon="6.29692">
        <ele>554.34</ele>
        <time>2016-10-21T07:19:40Z</time>
      </trkpt>
      <trkpt lat="43.58872" lon="6.29696">
        <ele>554.82</ele>
        <time>2016-10-21T07:19:43Z</time>
      </trkpt>
      <trkpt lat="43.58877" lon="6.29718">
        <ele>558.18</ele>
        <time>2016-10-21T07:19:58Z</time>
      </trkpt>
      <trkpt lat="43.58881" lon="6.29729">
        <ele>559.62</ele>
        <time>2016-10-21T07:20:06Z</time>
      </trkpt>
      <trkpt lat="43.58889" lon="6.29742">
        <ele>561.07</ele>
        <time>2016-10-21T07:20:17Z</time>
      </trkpt>
      <trkpt lat="43.58892" lon="6.29748">
        <ele>562.03</ele>
        <time>2016-10-21T07:20:21Z</time>
      </trkpt>
      <trkpt lat="43.589" lon="6.29771">
        <ele>564.91</ele>
        <time>2016-10-21T07:20:37Z</time>
      </trkpt>
      <trkpt lat="43.589" lon="6.29774">
        <ele>564.43</ele>
        <time>2016-10-21T07:20:39Z</time>
      </trkpt>
      <trkpt lat="43.58899" lon="6.298">
        <ele>566.35</ele>
        <time>2016-10-21T07:20:56Z</time>
      </trkpt>
      <trkpt lat="43.58892" lon="6.29818">
        <ele>568.76</ele>
        <time>2016-10-21T07:21:12Z</time>
      </trkpt>
      <trkpt lat="43.58894" lon="6.29824">
        <ele>569.24</ele>
        <time>2016-10-21T07:21:18Z</time>
      </trkpt>
      <trkpt lat="43.58898" lon="6.29845">
        <ele>571.64</ele>
        <time>2016-10-21T07:21:31Z</time>
      </trkpt>
      <trkpt lat="43.58906" lon="6.29858">
        <ele>573.08</ele>
        <time>2016-10-21T07:21:42Z</time>
      </trkpt>
      <trkpt lat="43.58909" lon="6.29862">
        <ele>573.56</ele>
        <time>2016-10-21T07:21:45Z</time>
      </trkpt>
      <trkpt lat="43.58915" lon="6.29868">
        <ele>575.01</ele>
        <time>2016-10-21T07:21:52Z</time>
      </trkpt>
      <trkpt lat="43.58917" lon="6.29865">
        <ele>575.01</ele>
        <time>2016-10-21T07:22:04Z</time>
      </trkpt>
      <trkpt lat="43.58917" lon="6.29867">
        <ele>575.01</ele>
        <time>2016-10-21T07:22:19Z</time>
      </trkpt>
      <trkpt lat="43.58919" lon="6.2987">
        <ele>575.49</ele>
        <time>2016-10-21T07:22:23Z</time>
      </trkpt>
      <trkpt lat="43.5893" lon="6.29884">
        <ele>579.33</ele>
        <time>2016-10-21T07:22:38Z</time>
      </trkpt>
      <trkpt lat="43.58931" lon="6.29885">
        <ele>578.85</ele>
        <time>2016-10-21T07:22:40Z</time>
      </trkpt>
      <trkpt lat="43.58935" lon="6.29894">
        <ele>580.77</ele>
        <time>2016-10-21T07:22:47Z</time>
      </trkpt>
      <trkpt lat="43.58934" lon="6.29913">
        <ele>583.18</ele>
        <time>2016-10-21T07:23:00Z</time>
      </trkpt>
      <trkpt lat="43.58935" lon="6.29934">
        <ele>586.06</ele>
        <time>2016-10-21T07:23:15Z</time>
      </trkpt>
      <trkpt lat="43.58934" lon="6.29956">
        <ele>589.43</ele>
        <time>2016-10-21T07:23:29Z</time>
      </trkpt>
      <trkpt lat="43.58934" lon="6.29959">
        <ele>589.91</ele>
        <time>2016-10-21T07:23:31Z</time>
      </trkpt>
      <trkpt lat="43.58933" lon="6.29962">
        <ele>590.39</ele>
        <time>2016-10-21T07:23:33Z</time>
      </trkpt>
      <trkpt lat="43.58926" lon="6.29986">
        <ele>593.75</ele>
        <time>2016-10-21T07:23:49Z</time>
      </trkpt>
      <trkpt lat="43.58925" lon="6.29994">
        <ele>594.23</ele>
        <time>2016-10-21T07:23:54Z</time>
      </trkpt>
      <trkpt lat="43.58922" lon="6.30003">
        <ele>595.67</ele>
        <time>2016-10-21T07:24:00Z</time>
      </trkpt>
      <trkpt lat="43.58921" lon="6.30006">
        <ele>596.64</ele>
        <time>2016-10-21T07:24:02Z</time>
      </trkpt>
      <trkpt lat="43.58918" lon="6.30009">
        <ele>597.12</ele>
        <time>2016-10-21T07:24:06Z</time>
      </trkpt>
      <trkpt lat="43.58915" lon="6.30016">
        <ele>598.56</ele>
        <time>2016-10-21T07:24:13Z</time>
      </trkpt>
      <trkpt lat="43.58915" lon="6.3002">
        <ele>599.04</ele>
        <time>2016-10-21T07:24:15Z</time>
      </trkpt>
      <trkpt lat="43.5891" lon="6.30036">
        <ele>600.96</ele>
        <time>2016-10-21T07:24:25Z</time>
      </trkpt>
      <trkpt lat="43.58903" lon="6.30053">
        <ele>604.81</ele>
        <time>2016-10-21T07:24:38Z</time>
      </trkpt>
      <trkpt lat="43.58903" lon="6.30053">
        <ele>604.33</ele>
        <time>2016-10-21T07:24:56Z</time>
      </trkpt>
      <trkpt lat="43.58902" lon="6.30053">
        <ele>604.81</ele>
        <time>2016-10-21T07:25:14Z</time>
      </trkpt>
      <trkpt lat="43.58901" lon="6.30062">
        <ele>606.25</ele>
        <time>2016-10-21T07:25:23Z</time>
      </trkpt>
      <trkpt lat="43.58896" lon="6.30069">
        <ele>607.21</ele>
        <time>2016-10-21T07:25:33Z</time>
      </trkpt>
      <trkpt lat="43.58891" lon="6.30077">
        <ele>608.65</ele>
        <time>2016-10-21T07:25:39Z</time>
      </trkpt>
      <trkpt lat="43.58891" lon="6.3009">
        <ele>610.09</ele>
        <time>2016-10-21T07:25:47Z</time>
      </trkpt>
      <trkpt lat="43.58904" lon="6.30096">
        <ele>612.98</ele>
        <time>2016-10-21T07:26:04Z</time>
      </trkpt>
      <trkpt lat="43.5891" lon="6.30094">
        <ele>613.94</ele>
        <time>2016-10-21T07:26:12Z</time>
      </trkpt>
      <trkpt lat="43.58913" lon="6.30094">
        <ele>613.94</ele>
        <time>2016-10-21T07:26:14Z</time>
      </trkpt>
      <trkpt lat="43.58918" lon="6.30091">
        <ele>614.42</ele>
        <time>2016-10-21T07:26:19Z</time>
      </trkpt>
      <trkpt lat="43.58929" lon="6.30083">
        <ele>615.86</ele>
        <time>2016-10-21T07:26:31Z</time>
      </trkpt>
      <trkpt lat="43.58943" lon="6.3008">
        <ele>618.75</ele>
        <time>2016-10-21T07:26:45Z</time>
      </trkpt>
      <trkpt lat="43.58942" lon="6.30092">
        <ele>620.67</ele>
        <time>2016-10-21T07:26:57Z</time>
      </trkpt>
      <trkpt lat="43.58932" lon="6.30106">
        <ele>622.59</ele>
        <time>2016-10-21T07:27:10Z</time>
      </trkpt>
      <trkpt lat="43.5892" lon="6.30124">
        <ele>624.51</ele>
        <time>2016-10-21T07:27:24Z</time>
      </trkpt>
      <trkpt lat="43.58919" lon="6.30127">
        <ele>624.99</ele>
        <time>2016-10-21T07:27:26Z</time>
      </trkpt>
      <trkpt lat="43.58903" lon="6.30137">
        <ele>624.99</ele>
        <time>2016-10-21T07:27:39Z</time>
      </trkpt>
      <trkpt lat="43.58892" lon="6.30153">
        <ele>624.51</ele>
        <time>2016-10-21T07:27:53Z</time>
      </trkpt>
      <trkpt lat="43.58879" lon="6.30167">
        <ele>624.03</ele>
        <time>2016-10-21T07:28:05Z</time>
      </trkpt>
      <trkpt lat="43.58873" lon="6.30178">
        <ele>624.03</ele>
        <time>2016-10-21T07:28:12Z</time>
      </trkpt>
      <trkpt lat="43.58868" lon="6.30189">
        <ele>624.03</ele>
        <time>2016-10-21T07:28:19Z</time>
      </trkpt>
      <trkpt lat="43.58858" lon="6.30204">
        <ele>624.51</ele>
        <time>2016-10-21T07:28:33Z</time>
      </trkpt>
      <trkpt lat="43.58849" lon="6.30227">
        <ele>625.47</ele>
        <time>2016-10-21T07:28:47Z</time>
      </trkpt>
      <trkpt lat="43.58841" lon="6.30244">
        <ele>627.4</ele>
        <time>2016-10-21T07:28:58Z</time>
      </trkpt>
      <trkpt lat="43.58837" lon="6.30255">
        <ele>628.36</ele>
        <time>2016-10-21T07:29:06Z</time>
      </trkpt>
      <trkpt lat="43.58836" lon="6.30263">
        <ele>629.32</ele>
        <time>2016-10-21T07:29:11Z</time>
      </trkpt>
      <trkpt lat="43.58833" lon="6.30284">
        <ele>632.2</ele>
        <time>2016-10-21T07:29:25Z</time>
      </trkpt>
      <trkpt lat="43.58833" lon="6.30287">
        <ele>632.68</ele>
        <time>2016-10-21T07:29:27Z</time>
      </trkpt>
      <trkpt lat="43.58839" lon="6.30303">
        <ele>635.09</ele>
        <time>2016-10-21T07:29:39Z</time>
      </trkpt>
      <trkpt lat="43.58838" lon="6.3031">
        <ele>636.05</ele>
        <time>2016-10-21T07:29:44Z</time>
      </trkpt>
      <trkpt lat="43.58831" lon="6.30322">
        <ele>637.49</ele>
        <time>2016-10-21T07:29:54Z</time>
      </trkpt>
      <trkpt lat="43.58839" lon="6.30339">
        <ele>638.93</ele>
        <time>2016-10-21T07:30:05Z</time>
      </trkpt>
      <trkpt lat="43.5884" lon="6.30344">
        <ele>639.89</ele>
        <time>2016-10-21T07:30:10Z</time>
      </trkpt>
      <trkpt lat="43.58839" lon="6.30347">
        <ele>640.38</ele>
        <time>2016-10-21T07:30:12Z</time>
      </trkpt>
      <trkpt lat="43.58834" lon="6.30352">
        <ele>640.86</ele>
        <time>2016-10-21T07:30:17Z</time>
      </trkpt>
      <trkpt lat="43.58832" lon="6.30357">
        <ele>640.86</ele>
        <time>2016-10-21T07:30:21Z</time>
      </trkpt>
      <trkpt lat="43.58846" lon="6.30374">
        <ele>643.26</ele>
        <time>2016-10-21T07:30:35Z</time>
      </trkpt>
      <trkpt lat="43.58847" lon="6.30377">
        <ele>643.26</ele>
        <time>2016-10-21T07:30:37Z</time>
      </trkpt>
      <trkpt lat="43.58835" lon="6.30398">
        <ele>645.18</ele>
        <time>2016-10-21T07:30:54Z</time>
      </trkpt>
      <trkpt lat="43.58829" lon="6.30411">
        <ele>647.1</ele>
        <time>2016-10-21T07:31:04Z</time>
      </trkpt>
      <trkpt lat="43.58826" lon="6.30416">
        <ele>647.1</ele>
        <time>2016-10-21T07:31:07Z</time>
      </trkpt>
      <trkpt lat="43.58818" lon="6.30428">
        <ele>648.55</ele>
        <time>2016-10-21T07:31:16Z</time>
      </trkpt>
      <trkpt lat="43.58817" lon="6.30443">
        <ele>649.51</ele>
        <time>2016-10-21T07:31:31Z</time>
      </trkpt>
      <trkpt lat="43.5881" lon="6.30439">
        <ele>649.99</ele>
        <time>2016-10-21T07:31:44Z</time>
      </trkpt>
      <trkpt lat="43.58796" lon="6.30434">
        <ele>649.03</ele>
        <time>2016-10-21T07:32:02Z</time>
      </trkpt>
      <trkpt lat="43.58796" lon="6.30433">
        <ele>649.03</ele>
        <time>2016-10-21T07:32:19Z</time>
      </trkpt>
      <trkpt lat="43.58797" lon="6.30434">
        <ele>649.03</ele>
        <time>2016-10-21T07:32:42Z</time>
      </trkpt>
      <trkpt lat="43.58797" lon="6.30435">
        <ele>649.03</ele>
        <time>2016-10-21T07:32:59Z</time>
      </trkpt>
      <trkpt lat="43.58797" lon="6.30436">
        <ele>649.51</ele>
        <time>2016-10-21T07:33:35Z</time>
      </trkpt>
      <trkpt lat="43.58797" lon="6.30437">
        <ele>649.03</ele>
        <time>2016-10-21T07:34:12Z</time>
      </trkpt>
      <trkpt lat="43.58797" lon="6.30436">
        <ele>649.03</ele>
        <time>2016-10-21T07:34:41Z</time>
      </trkpt>
      <trkpt lat="43.58796" lon="6.30436">
        <ele>649.03</ele>
        <time>2016-10-21T07:35:13Z</time>
      </trkpt>
      <trkpt lat="43.58797" lon="6.30436">
        <ele>649.03</ele>
        <time>2016-10-21T07:35:32Z</time>
      </trkpt>
      <trkpt lat="43.58796" lon="6.30436">
        <ele>649.51</ele>
        <time>2016-10-21T07:35:54Z</time>
      </trkpt>
      <trkpt lat="43.58795" lon="6.30436">
        <ele>649.03</ele>
        <time>2016-10-21T07:36:14Z</time>
      </trkpt>
      <trkpt lat="43.58796" lon="6.30437">
        <ele>649.03</ele>
        <time>2016-10-21T07:36:33Z</time>
      </trkpt>
      <trkpt lat="43.58796" lon="6.30436">
        <ele>649.03</ele>
        <time>2016-10-21T07:36:58Z</time>
      </trkpt>
      <trkpt lat="43.58796" lon="6.30436">
        <ele>649.03</ele>
        <time>2016-10-21T07:37:17Z</time>
      </trkpt>
      <trkpt lat="43.588" lon="6.30435">
        <ele>649.51</ele>
        <time>2016-10-21T07:37:26Z</time>
      </trkpt>
      <trkpt lat="43.588" lon="6.30434">
        <ele>649.51</ele>
        <time>2016-10-21T07:37:38Z</time>
      </trkpt>
      <trkpt lat="43.58798" lon="6.30436">
        <ele>649.03</ele>
        <time>2016-10-21T07:37:47Z</time>
      </trkpt>
      <trkpt lat="43.58794" lon="6.30436">
        <ele>649.03</ele>
        <time>2016-10-21T07:37:58Z</time>
      </trkpt>
      <trkpt lat="43.58794" lon="6.30436">
        <ele>649.03</ele>
        <time>2016-10-21T07:38:21Z</time>
      </trkpt>
      <trkpt lat="43.58796" lon="6.30436">
        <ele>649.03</ele>
        <time>2016-10-21T07:38:38Z</time>
      </trkpt>
      <trkpt lat="43.58797" lon="6.30437">
        <ele>649.03</ele>
        <time>2016-10-21T07:38:58Z</time>
      </trkpt>
      <trkpt lat="43.58797" lon="6.30437">
        <ele>649.03</ele>
        <time>2016-10-21T07:39:00Z</time>
      </trkpt>
      <trkpt lat="43.58796" lon="6.30444">
        <ele>649.51</ele>
        <time>2016-10-21T07:39:05Z</time>
      </trkpt>
      <trkpt lat="43.58788" lon="6.30468">
        <ele>649.51</ele>
        <time>2016-10-21T07:39:18Z</time>
      </trkpt>
      <trkpt lat="43.58784" lon="6.30484">
        <ele>649.03</ele>
        <time>2016-10-21T07:39:28Z</time>
      </trkpt>
      <trkpt lat="43.58785" lon="6.3049">
        <ele>649.03</ele>
        <time>2016-10-21T07:39:40Z</time>
      </trkpt>
      <trkpt lat="43.58786" lon="6.30487">
        <ele>649.03</ele>
        <time>2016-10-21T07:39:48Z</time>
      </trkpt>
      <trkpt lat="43.58788" lon="6.30479">
        <ele>649.51</ele>
        <time>2016-10-21T07:39:52Z</time>
      </trkpt>
      <trkpt lat="43.58798" lon="6.30453">
        <ele>649.51</ele>
        <time>2016-10-21T07:40:07Z</time>
      </trkpt>
      <trkpt lat="43.58804" lon="6.3044">
        <ele>649.51</ele>
        <time>2016-10-21T07:40:19Z</time>
      </trkpt>
      <trkpt lat="43.58804" lon="6.30439">
        <ele>649.51</ele>
        <time>2016-10-21T07:40:24Z</time>
      </trkpt>
      <trkpt lat="43.58801" lon="6.30438">
        <ele>649.51</ele>
        <time>2016-10-21T07:40:31Z</time>
      </trkpt>
      <trkpt lat="43.58796" lon="6.30436">
        <ele>649.03</ele>
        <time>2016-10-21T07:40:42Z</time>
      </trkpt>
      <trkpt lat="43.58796" lon="6.30437">
        <ele>649.03</ele>
        <time>2016-10-21T07:41:00Z</time>
      </trkpt>
      <trkpt lat="43.58795" lon="6.30437">
        <ele>649.03</ele>
        <time>2016-10-21T07:41:21Z</time>
      </trkpt>
      <trkpt lat="43.58795" lon="6.30436">
        <ele>649.03</ele>
        <time>2016-10-21T07:41:44Z</time>
      </trkpt>
      <trkpt lat="43.58795" lon="6.30437">
        <ele>649.03</ele>
        <time>2016-10-21T07:41:57Z</time>
      </trkpt>
      <trkpt lat="43.58794" lon="6.30437">
        <ele>649.51</ele>
        <time>2016-10-21T07:42:33Z</time>
      </trkpt>
      <trkpt lat="43.58794" lon="6.30437">
        <ele>649.99</ele>
        <time>2016-10-21T07:42:56Z</time>
      </trkpt>
      <trkpt lat="43.58794" lon="6.30437">
        <ele>645.66</ele>
        <time>2016-10-21T07:42:57Z</time>
      </trkpt>
      <trkpt lat="43.58794" lon="6.30437">
        <ele>649.51</ele>
        <time>2016-10-21T07:42:58Z</time>
      </trkpt>
      <trkpt lat="43.58795" lon="6.30437">
        <ele>649.51</ele>
        <time>2016-10-21T07:43:16Z</time>
      </trkpt>
      <trkpt lat="43.58795" lon="6.30437">
        <ele>649.03</ele>
        <time>2016-10-21T07:43:35Z</time>
      </trkpt>
      <trkpt lat="43.58795" lon="6.30438">
        <ele>649.03</ele>
        <time>2016-10-21T07:44:01Z</time>
      </trkpt>
      <trkpt lat="43.58795" lon="6.30438">
        <ele>649.03</ele>
        <time>2016-10-21T07:44:39Z</time>
      </trkpt>
      <trkpt lat="43.58795" lon="6.30438">
        <ele>649.03</ele>
        <time>2016-10-21T07:45:13Z</time>
      </trkpt>
      <trkpt lat="43.58795" lon="6.30438">
        <ele>649.03</ele>
        <time>2016-10-21T07:45:50Z</time>
      </trkpt>
      <trkpt lat="43.58795" lon="6.30438">
        <ele>649.51</ele>
        <time>2016-10-21T07:46:22Z</time>
      </trkpt>
      <trkpt lat="43.58795" lon="6.30438">
        <ele>649.51</ele>
        <time>2016-10-21T07:46:53Z</time>
      </trkpt>
      <trkpt lat="43.58795" lon="6.30438">
        <ele>649.51</ele>
        <time>2016-10-21T07:47:13Z</time>
      </trkpt>
      <trkpt lat="43.58795" lon="6.30438">
        <ele>649.51</ele>
        <time>2016-10-21T07:47:39Z</time>
      </trkpt>
      <trkpt lat="43.58795" lon="6.30438">
        <ele>649.51</ele>
        <time>2016-10-21T07:48:04Z</time>
      </trkpt>
      <trkpt lat="43.58795" lon="6.30438">
        <ele>649.51</ele>
        <time>2016-10-21T07:48:22Z</time>
      </trkpt>
      <trkpt lat="43.58797" lon="6.30437">
        <ele>649.99</ele>
        <time>2016-10-21T07:48:34Z</time>
      </trkpt>
      <trkpt lat="43.588" lon="6.30437">
        <ele>649.99</ele>
        <time>2016-10-21T07:48:37Z</time>
      </trkpt>
      <trkpt lat="43.58805" lon="6.30434">
        <ele>649.99</ele>
        <time>2016-10-21T07:48:43Z</time>
      </trkpt>
      <trkpt lat="43.58807" lon="6.30433">
        <ele>649.99</ele>
        <time>2016-10-21T07:48:45Z</time>
      </trkpt>
      <trkpt lat="43.58812" lon="6.30434">
        <ele>649.51</ele>
        <time>2016-10-21T07:48:49Z</time>
      </trkpt>
      <trkpt lat="43.58828" lon="6.30418">
        <ele>648.07</ele>
        <time>2016-10-21T07:49:04Z</time>
      </trkpt>
      <trkpt lat="43.58837" lon="6.30404">
        <ele>646.62</ele>
        <time>2016-10-21T07:49:13Z</time>
      </trkpt>
      <trkpt lat="43.58843" lon="6.30391">
        <ele>645.66</ele>
        <time>2016-10-21T07:49:22Z</time>
      </trkpt>
      <trkpt lat="43.58853" lon="6.30369">
        <ele>643.26</ele>
        <time>2016-10-21T07:49:36Z</time>
      </trkpt>
      <trkpt lat="43.58861" lon="6.30354">
        <ele>641.34</ele>
        <time>2016-10-21T07:49:48Z</time>
      </trkpt>
      <trkpt lat="43.58862" lon="6.30352">
        <ele>641.34</ele>
        <time>2016-10-21T07:49:53Z</time>
      </trkpt>
      <trkpt lat="43.58865" lon="6.30347">
        <ele>640.86</ele>
        <time>2016-10-21T07:49:58Z</time>
      </trkpt>
      <trkpt lat="43.5887" lon="6.30339">
        <ele>640.38</ele>
        <time>2016-10-21T07:50:05Z</time>
      </trkpt>
      <trkpt lat="43.58875" lon="6.3033">
        <ele>639.41</ele>
        <time>2016-10-21T07:50:12Z</time>
      </trkpt>
      <trkpt lat="43.5888" lon="6.30319">
        <ele>638.45</ele>
        <time>2016-10-21T07:50:21Z</time>
      </trkpt>
      <trkpt lat="43.58884" lon="6.30314">
        <ele>637.97</ele>
        <time>2016-10-21T07:50:25Z</time>
      </trkpt>
      <trkpt lat="43.58885" lon="6.30311">
        <ele>637.49</ele>
        <time>2016-10-21T07:50:27Z</time>
      </trkpt>
      <trkpt lat="43.58885" lon="6.30305">
        <ele>638.45</ele>
        <time>2016-10-21T07:50:35Z</time>
      </trkpt>
      <trkpt lat="43.58882" lon="6.30298">
        <ele>638.93</ele>
        <time>2016-10-21T07:50:40Z</time>
      </trkpt>
      <trkpt lat="43.58873" lon="6.30282">
        <ele>638.93</ele>
        <time>2016-10-21T07:50:56Z</time>
      </trkpt>
      <trkpt lat="43.58868" lon="6.30275">
        <ele>638.93</ele>
        <time>2016-10-21T07:51:10Z</time>
      </trkpt>
      <trkpt lat="43.58865" lon="6.30277">
        <ele>638.93</ele>
        <time>2016-10-21T07:51:24Z</time>
      </trkpt>
      <trkpt lat="43.58863" lon="6.30276">
        <ele>639.41</ele>
        <time>2016-10-21T07:51:40Z</time>
      </trkpt>
      <trkpt lat="43.58863" lon="6.30277">
        <ele>638.93</ele>
        <time>2016-10-21T07:51:42Z</time>
      </trkpt>
      <trkpt lat="43.58869" lon="6.30276">
        <ele>637.49</ele>
        <time>2016-10-21T07:51:54Z</time>
      </trkpt>
      <trkpt lat="43.58873" lon="6.30275">
        <ele>636.53</ele>
        <time>2016-10-21T07:52:02Z</time>
      </trkpt>
      <trkpt lat="43.58886" lon="6.30278">
        <ele>636.53</ele>
        <time>2016-10-21T07:52:15Z</time>
      </trkpt>
      <trkpt lat="43.58896" lon="6.30277">
        <ele>636.53</ele>
        <time>2016-10-21T07:52:26Z</time>
      </trkpt>
      <trkpt lat="43.58897" lon="6.30281">
        <ele>636.53</ele>
        <time>2016-10-21T07:52:35Z</time>
      </trkpt>
      <trkpt lat="43.5891" lon="6.30272">
        <ele>637.01</ele>
        <time>2016-10-21T07:52:49Z</time>
      </trkpt>
      <trkpt lat="43.58914" lon="6.30266">
        <ele>637.01</ele>
        <time>2016-10-21T07:53:04Z</time>
      </trkpt>
      <trkpt lat="43.58922" lon="6.30254">
        <ele>637.49</ele>
        <time>2016-10-21T07:53:15Z</time>
      </trkpt>
      <trkpt lat="43.58925" lon="6.30247">
        <ele>637.49</ele>
        <time>2016-10-21T07:53:20Z</time>
      </trkpt>
      <trkpt lat="43.58925" lon="6.30237">
        <ele>637.01</ele>
        <time>2016-10-21T07:53:29Z</time>
      </trkpt>
      <trkpt lat="43.58922" lon="6.3022">
        <ele>636.05</ele>
        <time>2016-10-21T07:53:42Z</time>
      </trkpt>
      <trkpt lat="43.58923" lon="6.30207">
        <ele>636.05</ele>
        <time>2016-10-21T07:53:54Z</time>
      </trkpt>
      <trkpt lat="43.58923" lon="6.30195">
        <ele>635.57</ele>
        <time>2016-10-21T07:54:06Z</time>
      </trkpt>
      <trkpt lat="43.58923" lon="6.30184">
        <ele>635.09</ele>
        <time>2016-10-21T07:54:10Z</time>
      </trkpt>
      <trkpt lat="43.58919" lon="6.30177">
        <ele>635.09</ele>
        <time>2016-10-21T07:54:24Z</time>
      </trkpt>
      <trkpt lat="43.58917" lon="6.30172">
        <ele>635.09</ele>
        <time>2016-10-21T07:54:39Z</time>
      </trkpt>
      <trkpt lat="43.58922" lon="6.3017">
        <ele>634.61</ele>
        <time>2016-10-21T07:54:49Z</time>
      </trkpt>
      <trkpt lat="43.58921" lon="6.30168">
        <ele>634.13</ele>
        <time>2016-10-21T07:54:51Z</time>
      </trkpt>
      <trkpt lat="43.58922" lon="6.30161">
        <ele>633.65</ele>
        <time>2016-10-21T07:54:57Z</time>
      </trkpt>
      <trkpt lat="43.58921" lon="6.30153">
        <ele>633.17</ele>
        <time>2016-10-21T07:55:09Z</time>
      </trkpt>
      <trkpt lat="43.58924" lon="6.30149">
        <ele>633.17</ele>
        <time>2016-10-21T07:55:18Z</time>
      </trkpt>
      <trkpt lat="43.58927" lon="6.30147">
        <ele>632.68</ele>
        <time>2016-10-21T07:55:22Z</time>
      </trkpt>
      <trkpt lat="43.58935" lon="6.30131">
        <ele>630.76</ele>
        <time>2016-10-21T07:55:39Z</time>
      </trkpt>
      <trkpt lat="43.58935" lon="6.3013">
        <ele>631.24</ele>
        <time>2016-10-21T07:55:58Z</time>
      </trkpt>
      <trkpt lat="43.58937" lon="6.30127">
        <ele>630.76</ele>
        <time>2016-10-21T07:56:14Z</time>
      </trkpt>
      <trkpt lat="43.58939" lon="6.30124">
        <ele>630.76</ele>
        <time>2016-10-21T07:56:20Z</time>
      </trkpt>
      <trkpt lat="43.58941" lon="6.30121">
        <ele>630.28</ele>
        <time>2016-10-21T07:56:22Z</time>
      </trkpt>
      <trkpt lat="43.58946" lon="6.30118">
        <ele>629.32</ele>
        <time>2016-10-21T07:56:29Z</time>
      </trkpt>
      <trkpt lat="43.58951" lon="6.3011">
        <ele>628.84</ele>
        <time>2016-10-21T07:56:38Z</time>
      </trkpt>
      <trkpt lat="43.58966" lon="6.30111">
        <ele>628.36</ele>
        <time>2016-10-21T07:56:53Z</time>
      </trkpt>
      <trkpt lat="43.58965" lon="6.30099">
        <ele>628.36</ele>
        <time>2016-10-21T07:56:57Z</time>
      </trkpt>
      <trkpt lat="43.58961" lon="6.30097">
        <ele>628.36</ele>
        <time>2016-10-21T07:57:00Z</time>
      </trkpt>
      <trkpt lat="43.58959" lon="6.30098">
        <ele>628.36</ele>
        <time>2016-10-21T07:57:05Z</time>
      </trkpt>
      <trkpt lat="43.58953" lon="6.30099">
        <ele>626.44</ele>
        <time>2016-10-21T07:57:15Z</time>
      </trkpt>
      <trkpt lat="43.58948" lon="6.3009">
        <ele>624.51</ele>
        <time>2016-10-21T07:57:28Z</time>
      </trkpt>
      <trkpt lat="43.58948" lon="6.30086">
        <ele>624.03</ele>
        <time>2016-10-21T07:57:31Z</time>
      </trkpt>
      <trkpt lat="43.58946" lon="6.30079">
        <ele>623.07</ele>
        <time>2016-10-21T07:57:36Z</time>
      </trkpt>
      <trkpt lat="43.58938" lon="6.3008">
        <ele>621.63</ele>
        <time>2016-10-21T07:57:45Z</time>
      </trkpt>
      <trkpt lat="43.58936" lon="6.30086">
        <ele>620.67</ele>
        <time>2016-10-21T07:57:48Z</time>
      </trkpt>
      <trkpt lat="43.58933" lon="6.30088">
        <ele>620.19</ele>
        <time>2016-10-21T07:57:51Z</time>
      </trkpt>
      <trkpt lat="43.5893" lon="6.3009">
        <ele>620.19</ele>
        <time>2016-10-21T07:57:54Z</time>
      </trkpt>
      <trkpt lat="43.58924" lon="6.30095">
        <ele>619.23</ele>
        <time>2016-10-21T07:58:00Z</time>
      </trkpt>
      <trkpt lat="43.58901" lon="6.30093">
        <ele>616.82</ele>
        <time>2016-10-21T07:58:13Z</time>
      </trkpt>
      <trkpt lat="43.58897" lon="6.30085">
        <ele>613.94</ele>
        <time>2016-10-21T07:58:25Z</time>
      </trkpt>
      <trkpt lat="43.58901" lon="6.30069">
        <ele>611.06</ele>
        <time>2016-10-21T07:58:37Z</time>
      </trkpt>
      <trkpt lat="43.58902" lon="6.30064">
        <ele>610.57</ele>
        <time>2016-10-21T07:58:40Z</time>
      </trkpt>
      <trkpt lat="43.58906" lon="6.30057">
        <ele>609.13</ele>
        <time>2016-10-21T07:58:44Z</time>
      </trkpt>
      <trkpt lat="43.58912" lon="6.30036">
        <ele>606.73</ele>
        <time>2016-10-21T07:58:56Z</time>
      </trkpt>
      <trkpt lat="43.58913" lon="6.30032">
        <ele>606.25</ele>
        <time>2016-10-21T07:58:58Z</time>
      </trkpt>
      <trkpt lat="43.58921" lon="6.30016">
        <ele>602.88</ele>
        <time>2016-10-21T07:59:10Z</time>
      </trkpt>
      <trkpt lat="43.58926" lon="6.29994">
        <ele>600</ele>
        <time>2016-10-21T07:59:23Z</time>
      </trkpt>
      <trkpt lat="43.58936" lon="6.29971">
        <ele>597.12</ele>
        <time>2016-10-21T07:59:36Z</time>
      </trkpt>
      <trkpt lat="43.58936" lon="6.29969">
        <ele>596.64</ele>
        <time>2016-10-21T07:59:37Z</time>
      </trkpt>
      <trkpt lat="43.58939" lon="6.29961">
        <ele>595.19</ele>
        <time>2016-10-21T07:59:42Z</time>
      </trkpt>
      <trkpt lat="43.58942" lon="6.29946">
        <ele>593.27</ele>
        <time>2016-10-21T07:59:50Z</time>
      </trkpt>
      <trkpt lat="43.58941" lon="6.29934">
        <ele>591.35</ele>
        <time>2016-10-21T07:59:57Z</time>
      </trkpt>
      <trkpt lat="43.58939" lon="6.29927">
        <ele>590.39</ele>
        <time>2016-10-21T08:00:01Z</time>
      </trkpt>
      <trkpt lat="43.5894" lon="6.29922">
        <ele>589.43</ele>
        <time>2016-10-21T08:00:04Z</time>
      </trkpt>
      <trkpt lat="43.5894" lon="6.29918">
        <ele>589.43</ele>
        <time>2016-10-21T08:00:06Z</time>
      </trkpt>
      <trkpt lat="43.58941" lon="6.2991">
        <ele>587.98</ele>
        <time>2016-10-21T08:00:11Z</time>
      </trkpt>
      <trkpt lat="43.58939" lon="6.29896">
        <ele>586.06</ele>
        <time>2016-10-21T08:00:18Z</time>
      </trkpt>
      <trkpt lat="43.58932" lon="6.29885">
        <ele>584.14</ele>
        <time>2016-10-21T08:00:26Z</time>
      </trkpt>
      <trkpt lat="43.58918" lon="6.2987">
        <ele>580.77</ele>
        <time>2016-10-21T08:00:40Z</time>
      </trkpt>
      <trkpt lat="43.58904" lon="6.29852">
        <ele>577.41</ele>
        <time>2016-10-21T08:00:53Z</time>
      </trkpt>
      <trkpt lat="43.58895" lon="6.29829">
        <ele>575.01</ele>
        <time>2016-10-21T08:01:07Z</time>
      </trkpt>
      <trkpt lat="43.58898" lon="6.29822">
        <ele>574.04</ele>
        <time>2016-10-21T08:01:11Z</time>
      </trkpt>
      <trkpt lat="43.58901" lon="6.29812">
        <ele>573.08</ele>
        <time>2016-10-21T08:01:17Z</time>
      </trkpt>
      <trkpt lat="43.58904" lon="6.29795">
        <ele>571.64</ele>
        <time>2016-10-21T08:01:26Z</time>
      </trkpt>
      <trkpt lat="43.58906" lon="6.29788">
        <ele>570.68</ele>
        <time>2016-10-21T08:01:30Z</time>
      </trkpt>
      <trkpt lat="43.58901" lon="6.29759">
        <ele>568.28</ele>
        <time>2016-10-21T08:01:47Z</time>
      </trkpt>
      <trkpt lat="43.5889" lon="6.2974">
        <ele>565.87</ele>
        <time>2016-10-21T08:02:00Z</time>
      </trkpt>
      <trkpt lat="43.58879" lon="6.29716">
        <ele>563.47</ele>
        <time>2016-10-21T08:02:15Z</time>
      </trkpt>
      <trkpt lat="43.58875" lon="6.29697">
        <ele>560.11</ele>
        <time>2016-10-21T08:02:26Z</time>
      </trkpt>
      <trkpt lat="43.58871" lon="6.29676">
        <ele>557.22</ele>
        <time>2016-10-21T08:02:38Z</time>
      </trkpt>
      <trkpt lat="43.58861" lon="6.29658">
        <ele>553.38</ele>
        <time>2016-10-21T08:02:51Z</time>
      </trkpt>
      <trkpt lat="43.58847" lon="6.29639">
        <ele>551.45</ele>
        <time>2016-10-21T08:03:05Z</time>
      </trkpt>
      <trkpt lat="43.58831" lon="6.29616">
        <ele>550.49</ele>
        <time>2016-10-21T08:03:23Z</time>
      </trkpt>
      <trkpt lat="43.58819" lon="6.29595">
        <ele>550.49</ele>
        <time>2016-10-21T08:03:35Z</time>
      </trkpt>
      <trkpt lat="43.58807" lon="6.2958">
        <ele>550.49</ele>
        <time>2016-10-21T08:03:48Z</time>
      </trkpt>
      <trkpt lat="43.58786" lon="6.29573">
        <ele>551.93</ele>
        <time>2016-10-21T08:04:03Z</time>
      </trkpt>
      <trkpt lat="43.5877" lon="6.2958">
        <ele>552.9</ele>
        <time>2016-10-21T08:04:14Z</time>
      </trkpt>
      <trkpt lat="43.58751" lon="6.2959">
        <ele>553.38</ele>
        <time>2016-10-21T08:04:27Z</time>
      </trkpt>
      <trkpt lat="43.5875" lon="6.29591">
        <ele>553.38</ele>
        <time>2016-10-21T08:04:28Z</time>
      </trkpt>
      <trkpt lat="43.5873" lon="6.29612">
        <ele>552.9</ele>
        <time>2016-10-21T08:04:45Z</time>
      </trkpt>
      <trkpt lat="43.58724" lon="6.29615">
        <ele>552.41</ele>
        <time>2016-10-21T08:04:49Z</time>
      </trkpt>
      <trkpt lat="43.58706" lon="6.29624">
        <ele>551.45</ele>
        <time>2016-10-21T08:05:03Z</time>
      </trkpt>
      <trkpt lat="43.58696" lon="6.29628">
        <ele>550.97</ele>
        <time>2016-10-21T08:05:10Z</time>
      </trkpt>
      <trkpt lat="43.5869" lon="6.29632">
        <ele>550.97</ele>
        <time>2016-10-21T08:05:14Z</time>
      </trkpt>
      <trkpt lat="43.58667" lon="6.29637">
        <ele>550.49</ele>
        <time>2016-10-21T08:05:29Z</time>
      </trkpt>
      <trkpt lat="43.58649" lon="6.29639">
        <ele>550.49</ele>
        <time>2016-10-21T08:05:44Z</time>
      </trkpt>
      <trkpt lat="43.58628" lon="6.2964">
        <ele>550.01</ele>
        <time>2016-10-21T08:05:58Z</time>
      </trkpt>
      <trkpt lat="43.58607" lon="6.29651">
        <ele>549.53</ele>
        <time>2016-10-21T08:06:13Z</time>
      </trkpt>
      <trkpt lat="43.58598" lon="6.29655">
        <ele>549.05</ele>
        <time>2016-10-21T08:06:19Z</time>
      </trkpt>
      <trkpt lat="43.58591" lon="6.29658">
        <ele>549.05</ele>
        <time>2016-10-21T08:06:23Z</time>
      </trkpt>
      <trkpt lat="43.58584" lon="6.29672">
        <ele>548.57</ele>
        <time>2016-10-21T08:06:30Z</time>
      </trkpt>
      <trkpt lat="43.58577" lon="6.29683">
        <ele>548.09</ele>
        <time>2016-10-21T08:06:37Z</time>
      </trkpt>
      <trkpt lat="43.58568" lon="6.297">
        <ele>547.13</ele>
        <time>2016-10-21T08:06:47Z</time>
      </trkpt>
      <trkpt lat="43.58565" lon="6.29705">
        <ele>546.65</ele>
        <time>2016-10-21T08:06:50Z</time>
      </trkpt>
      <trkpt lat="43.58558" lon="6.29712">
        <ele>545.69</ele>
        <time>2016-10-21T08:06:56Z</time>
      </trkpt>
      <trkpt lat="43.58545" lon="6.29719">
        <ele>543.76</ele>
        <time>2016-10-21T08:07:05Z</time>
      </trkpt>
      <trkpt lat="43.58541" lon="6.29719">
        <ele>543.28</ele>
        <time>2016-10-21T08:07:09Z</time>
      </trkpt>
      <trkpt lat="43.58526" lon="6.29722">
        <ele>541.84</ele>
        <time>2016-10-21T08:07:20Z</time>
      </trkpt>
      <trkpt lat="43.58514" lon="6.29721">
        <ele>541.36</ele>
        <time>2016-10-21T08:07:29Z</time>
      </trkpt>
      <trkpt lat="43.58499" lon="6.29718">
        <ele>540.4</ele>
        <time>2016-10-21T08:07:40Z</time>
      </trkpt>
      <trkpt lat="43.58497" lon="6.29709">
        <ele>539.92</ele>
        <time>2016-10-21T08:07:47Z</time>
      </trkpt>
      <trkpt lat="43.58497" lon="6.29704">
        <ele>539.44</ele>
        <time>2016-10-21T08:07:51Z</time>
      </trkpt>
      <trkpt lat="43.585" lon="6.29681">
        <ele>538.48</ele>
        <time>2016-10-21T08:08:06Z</time>
      </trkpt>
      <trkpt lat="43.58495" lon="6.29656">
        <ele>538.48</ele>
        <time>2016-10-21T08:08:20Z</time>
      </trkpt>
      <trkpt lat="43.5848" lon="6.29633">
        <ele>538.48</ele>
        <time>2016-10-21T08:08:37Z</time>
      </trkpt>
      <trkpt lat="43.58474" lon="6.29624">
        <ele>537.99</ele>
        <time>2016-10-21T08:08:43Z</time>
      </trkpt>
      <trkpt lat="43.58454" lon="6.296">
        <ele>536.07</ele>
        <time>2016-10-21T08:09:02Z</time>
      </trkpt>
      <trkpt lat="43.58435" lon="6.29581">
        <ele>535.59</ele>
        <time>2016-10-21T08:09:17Z</time>
      </trkpt>
      <trkpt lat="43.58419" lon="6.29565">
        <ele>535.11</ele>
        <time>2016-10-21T08:09:30Z</time>
      </trkpt>
      <trkpt lat="43.58407" lon="6.29558">
        <ele>534.63</ele>
        <time>2016-10-21T08:09:40Z</time>
      </trkpt>
      <trkpt lat="43.58404" lon="6.29551">
        <ele>533.67</ele>
        <time>2016-10-21T08:09:44Z</time>
      </trkpt>
      <trkpt lat="43.58394" lon="6.29537">
        <ele>531.27</ele>
        <time>2016-10-21T08:09:59Z</time>
      </trkpt>
      <trkpt lat="43.58392" lon="6.29536">
        <ele>530.79</ele>
        <time>2016-10-21T08:10:04Z</time>
      </trkpt>
      <trkpt lat="43.58386" lon="6.29527">
        <ele>530.3</ele>
        <time>2016-10-21T08:10:11Z</time>
      </trkpt>
      <trkpt lat="43.58377" lon="6.29514">
        <ele>529.34</ele>
        <time>2016-10-21T08:10:21Z</time>
      </trkpt>
      <trkpt lat="43.58363" lon="6.29499">
        <ele>527.42</ele>
        <time>2016-10-21T08:10:35Z</time>
      </trkpt>
      <trkpt lat="43.5834" lon="6.29483">
        <ele>525.02</ele>
        <time>2016-10-21T08:10:52Z</time>
      </trkpt>
      <trkpt lat="43.58322" lon="6.29467">
        <ele>523.09</ele>
        <time>2016-10-21T08:11:08Z</time>
      </trkpt>
      <trkpt lat="43.58302" lon="6.29452">
        <ele>521.17</ele>
        <time>2016-10-21T08:11:23Z</time>
      </trkpt>
      <trkpt lat="43.58288" lon="6.29441">
        <ele>519.25</ele>
        <time>2016-10-21T08:11:36Z</time>
      </trkpt>
      <trkpt lat="43.58275" lon="6.29432">
        <ele>517.33</ele>
        <time>2016-10-21T08:11:47Z</time>
      </trkpt>
      <trkpt lat="43.58257" lon="6.29419">
        <ele>514.44</ele>
        <time>2016-10-21T08:12:01Z</time>
      </trkpt>
      <trkpt lat="43.58251" lon="6.29416">
        <ele>513.96</ele>
        <time>2016-10-21T08:12:05Z</time>
      </trkpt>
      <trkpt lat="43.58234" lon="6.29412">
        <ele>512.04</ele>
        <time>2016-10-21T08:12:19Z</time>
      </trkpt>
      <trkpt lat="43.58226" lon="6.29408">
        <ele>510.6</ele>
        <time>2016-10-21T08:12:26Z</time>
      </trkpt>
      <trkpt lat="43.58208" lon="6.29399">
        <ele>508.19</ele>
        <time>2016-10-21T08:12:41Z</time>
      </trkpt>
      <trkpt lat="43.58187" lon="6.29393">
        <ele>505.79</ele>
        <time>2016-10-21T08:12:56Z</time>
      </trkpt>
      <trkpt lat="43.58173" lon="6.2939">
        <ele>502.43</ele>
        <time>2016-10-21T08:13:08Z</time>
      </trkpt>
      <trkpt lat="43.5817" lon="6.2939">
        <ele>501.95</ele>
        <time>2016-10-21T08:13:10Z</time>
      </trkpt>
      <trkpt lat="43.58156" lon="6.29383">
        <ele>499.06</ele>
        <time>2016-10-21T08:13:21Z</time>
      </trkpt>
      <trkpt lat="43.5815" lon="6.29383">
        <ele>497.62</ele>
        <time>2016-10-21T08:13:26Z</time>
      </trkpt>
      <trkpt lat="43.58147" lon="6.29382">
        <ele>497.14</ele>
        <time>2016-10-21T08:13:28Z</time>
      </trkpt>
      <trkpt lat="43.58133" lon="6.29375">
        <ele>494.74</ele>
        <time>2016-10-21T08:13:39Z</time>
      </trkpt>
      <trkpt lat="43.58118" lon="6.2937">
        <ele>491.85</ele>
        <time>2016-10-21T08:13:51Z</time>
      </trkpt>
      <trkpt lat="43.58116" lon="6.29369">
        <ele>490.89</ele>
        <time>2016-10-21T08:13:53Z</time>
      </trkpt>
      <trkpt lat="43.58113" lon="6.29366">
        <ele>490.41</ele>
        <time>2016-10-21T08:13:56Z</time>
      </trkpt>
      <trkpt lat="43.58107" lon="6.29363">
        <ele>488.97</ele>
        <time>2016-10-21T08:14:01Z</time>
      </trkpt>
      <trkpt lat="43.58103" lon="6.29362">
        <ele>488.01</ele>
        <time>2016-10-21T08:14:05Z</time>
      </trkpt>
      <trkpt lat="43.58087" lon="6.29355">
        <ele>484.64</ele>
        <time>2016-10-21T08:14:17Z</time>
      </trkpt>
      <trkpt lat="43.5808" lon="6.29353">
        <ele>483.68</ele>
        <time>2016-10-21T08:14:22Z</time>
      </trkpt>
      <trkpt lat="43.58075" lon="6.29352">
        <ele>482.72</ele>
        <time>2016-10-21T08:14:27Z</time>
      </trkpt>
      <trkpt lat="43.58055" lon="6.29347">
        <ele>479.84</ele>
        <time>2016-10-21T08:14:40Z</time>
      </trkpt>
      <trkpt lat="43.58036" lon="6.29341">
        <ele>479.35</ele>
        <time>2016-10-21T08:14:54Z</time>
      </trkpt>
      <trkpt lat="43.58021" lon="6.29329">
        <ele>479.35</ele>
        <time>2016-10-21T08:15:08Z</time>
      </trkpt>
      <trkpt lat="43.58022" lon="6.29326">
        <ele>479.35</ele>
        <time>2016-10-21T08:15:15Z</time>
      </trkpt>
      <trkpt lat="43.58021" lon="6.29314">
        <ele>476.95</ele>
        <time>2016-10-21T08:15:27Z</time>
      </trkpt>
      <trkpt lat="43.5802" lon="6.29328">
        <ele>479.35</ele>
        <time>2016-10-21T08:15:39Z</time>
      </trkpt>
      <trkpt lat="43.58021" lon="6.29329">
        <ele>479.35</ele>
        <time>2016-10-21T08:15:52Z</time>
      </trkpt>
      <trkpt lat="43.58021" lon="6.29329">
        <ele>479.35</ele>
        <time>2016-10-21T08:16:05Z</time>
      </trkpt>
      <trkpt lat="43.5802" lon="6.29329">
        <ele>479.35</ele>
        <time>2016-10-21T08:16:17Z</time>
      </trkpt>
      <trkpt lat="43.5802" lon="6.29327">
        <ele>479.35</ele>
        <time>2016-10-21T08:16:25Z</time>
      </trkpt>
      <trkpt lat="43.5802" lon="6.29313">
        <ele>476.47</ele>
        <time>2016-10-21T08:16:40Z</time>
      </trkpt>
      <trkpt lat="43.58019" lon="6.29307">
        <ele>475.51</ele>
        <time>2016-10-21T08:16:47Z</time>
      </trkpt>
      <trkpt lat="43.58014" lon="6.2929">
        <ele>473.11</ele>
        <time>2016-10-21T08:17:01Z</time>
      </trkpt>
      <trkpt lat="43.58013" lon="6.29268">
        <ele>470.7</ele>
        <time>2016-10-21T08:17:15Z</time>
      </trkpt>
      <trkpt lat="43.58007" lon="6.29258">
        <ele>469.26</ele>
        <time>2016-10-21T08:17:23Z</time>
      </trkpt>
      <trkpt lat="43.57998" lon="6.29249">
        <ele>466.38</ele>
        <time>2016-10-21T08:17:30Z</time>
      </trkpt>
      <trkpt lat="43.57987" lon="6.29246">
        <ele>465.42</ele>
        <time>2016-10-21T08:17:39Z</time>
      </trkpt>
      <trkpt lat="43.57976" lon="6.29238">
        <ele>463.49</ele>
        <time>2016-10-21T08:17:49Z</time>
      </trkpt>
      <trkpt lat="43.57966" lon="6.29234">
        <ele>463.01</ele>
        <time>2016-10-21T08:17:57Z</time>
      </trkpt>
      <trkpt lat="43.57962" lon="6.2923">
        <ele>462.53</ele>
        <time>2016-10-21T08:18:01Z</time>
      </trkpt>
      <trkpt lat="43.57959" lon="6.29212">
        <ele>462.05</ele>
        <time>2016-10-21T08:18:12Z</time>
      </trkpt>
      <trkpt lat="43.57959" lon="6.29209">
        <ele>462.05</ele>
        <time>2016-10-21T08:18:14Z</time>
      </trkpt>
      <trkpt lat="43.57957" lon="6.29202">
        <ele>461.09</ele>
        <time>2016-10-21T08:18:19Z</time>
      </trkpt>
      <trkpt lat="43.57953" lon="6.29187">
        <ele>458.69</ele>
        <time>2016-10-21T08:18:33Z</time>
      </trkpt>
      <trkpt lat="43.57948" lon="6.29174">
        <ele>456.28</ele>
        <time>2016-10-21T08:18:46Z</time>
      </trkpt>
      <trkpt lat="43.57942" lon="6.29161">
        <ele>453.88</ele>
        <time>2016-10-21T08:19:00Z</time>
      </trkpt>
      <trkpt lat="43.57938" lon="6.29149">
        <ele>451</ele>
        <time>2016-10-21T08:19:13Z</time>
      </trkpt>
      <trkpt lat="43.57933" lon="6.29141">
        <ele>450.03</ele>
        <time>2016-10-21T08:19:22Z</time>
      </trkpt>
      <trkpt lat="43.5793" lon="6.29135">
        <ele>448.11</ele>
        <time>2016-10-21T08:19:28Z</time>
      </trkpt>
      <trkpt lat="43.57928" lon="6.29133">
        <ele>448.11</ele>
        <time>2016-10-21T08:19:30Z</time>
      </trkpt>
      <trkpt lat="43.57922" lon="6.29127">
        <ele>446.67</ele>
        <time>2016-10-21T08:19:37Z</time>
      </trkpt>
      <trkpt lat="43.57915" lon="6.29123">
        <ele>444.75</ele>
        <time>2016-10-21T08:19:49Z</time>
      </trkpt>
      <trkpt lat="43.57911" lon="6.29122">
        <ele>444.27</ele>
        <time>2016-10-21T08:19:57Z</time>
      </trkpt>
      <trkpt lat="43.57901" lon="6.29121">
        <ele>442.34</ele>
        <time>2016-10-21T08:20:07Z</time>
      </trkpt>
      <trkpt lat="43.57884" lon="6.29117">
        <ele>439.46</ele>
        <time>2016-10-21T08:20:20Z</time>
      </trkpt>
      <trkpt lat="43.57869" lon="6.29117">
        <ele>436.1</ele>
        <time>2016-10-21T08:20:32Z</time>
      </trkpt>
      <trkpt lat="43.57862" lon="6.29119">
        <ele>435.13</ele>
        <time>2016-10-21T08:20:37Z</time>
      </trkpt>
      <trkpt lat="43.5785" lon="6.29126">
        <ele>433.69</ele>
        <time>2016-10-21T08:20:45Z</time>
      </trkpt>
      <trkpt lat="43.57846" lon="6.29129">
        <ele>432.25</ele>
        <time>2016-10-21T08:20:49Z</time>
      </trkpt>
      <trkpt lat="43.57842" lon="6.29128">
        <ele>431.29</ele>
        <time>2016-10-21T08:20:55Z</time>
      </trkpt>
      <trkpt lat="43.57833" lon="6.29113">
        <ele>428.89</ele>
        <time>2016-10-21T08:21:08Z</time>
      </trkpt>
      <trkpt lat="43.57826" lon="6.29096">
        <ele>427.44</ele>
        <time>2016-10-21T08:21:19Z</time>
      </trkpt>
      <trkpt lat="43.57817" lon="6.29086">
        <ele>425.52</ele>
        <time>2016-10-21T08:21:29Z</time>
      </trkpt>
      <trkpt lat="43.57813" lon="6.29079">
        <ele>424.56</ele>
        <time>2016-10-21T08:21:33Z</time>
      </trkpt>
      <trkpt lat="43.57811" lon="6.29067">
        <ele>423.6</ele>
        <time>2016-10-21T08:21:39Z</time>
      </trkpt>
      <trkpt lat="43.57814" lon="6.29058">
        <ele>422.16</ele>
        <time>2016-10-21T08:21:45Z</time>
      </trkpt>
      <trkpt lat="43.57831" lon="6.29043">
        <ele>420.23</ele>
        <time>2016-10-21T08:22:00Z</time>
      </trkpt>
      <trkpt lat="43.57832" lon="6.29029">
        <ele>418.31</ele>
        <time>2016-10-21T08:22:08Z</time>
      </trkpt>
      <trkpt lat="43.57833" lon="6.29024">
        <ele>417.83</ele>
        <time>2016-10-21T08:22:10Z</time>
      </trkpt>
      <trkpt lat="43.57834" lon="6.29002">
        <ele>415.91</ele>
        <time>2016-10-21T08:22:22Z</time>
      </trkpt>
      <trkpt lat="43.57836" lon="6.28988">
        <ele>414.47</ele>
        <time>2016-10-21T08:22:30Z</time>
      </trkpt>
      <trkpt lat="43.57836" lon="6.28981">
        <ele>413.5</ele>
        <time>2016-10-21T08:22:34Z</time>
      </trkpt>
      <trkpt lat="43.57836" lon="6.28974">
        <ele>413.02</ele>
        <time>2016-10-21T08:22:38Z</time>
      </trkpt>
      <trkpt lat="43.57838" lon="6.28948">
        <ele>411.1</ele>
        <time>2016-10-21T08:22:52Z</time>
      </trkpt>
      <trkpt lat="43.5784" lon="6.28943">
        <ele>410.14</ele>
        <time>2016-10-21T08:22:55Z</time>
      </trkpt>
      <trkpt lat="43.57841" lon="6.28938">
        <ele>409.66</ele>
        <time>2016-10-21T08:22:57Z</time>
      </trkpt>
      <trkpt lat="43.57843" lon="6.28912">
        <ele>408.7</ele>
        <time>2016-10-21T08:23:10Z</time>
      </trkpt>
      <trkpt lat="43.57834" lon="6.28889">
        <ele>404.85</ele>
        <time>2016-10-21T08:23:25Z</time>
      </trkpt>
      <trkpt lat="43.57833" lon="6.2889">
        <ele>404.37</ele>
        <time>2016-10-21T08:23:39Z</time>
      </trkpt>
      <trkpt lat="43.57832" lon="6.2889">
        <ele>407.26</ele>
        <time>2016-10-21T08:23:50Z</time>
      </trkpt>
      <trkpt lat="43.57832" lon="6.28889">
        <ele>403.89</ele>
        <time>2016-10-21T08:23:53Z</time>
      </trkpt>
      <trkpt lat="43.57832" lon="6.28889">
        <ele>403.89</ele>
        <time>2016-10-21T08:24:13Z</time>
      </trkpt>
      <trkpt lat="43.57831" lon="6.28889">
        <ele>403.89</ele>
        <time>2016-10-21T08:24:39Z</time>
      </trkpt>
      <trkpt lat="43.57832" lon="6.28889">
        <ele>403.89</ele>
        <time>2016-10-21T08:25:08Z</time>
      </trkpt>
      <trkpt lat="43.57832" lon="6.28889">
        <ele>403.41</ele>
        <time>2016-10-21T08:25:41Z</time>
      </trkpt>
      <trkpt lat="43.57833" lon="6.28889">
        <ele>403.41</ele>
        <time>2016-10-21T08:26:10Z</time>
      </trkpt>
      <trkpt lat="43.57832" lon="6.28888">
        <ele>402.93</ele>
        <time>2016-10-21T08:26:18Z</time>
      </trkpt>
      <trkpt lat="43.57828" lon="6.28885">
        <ele>402.45</ele>
        <time>2016-10-21T08:26:35Z</time>
      </trkpt>
      <trkpt lat="43.57823" lon="6.28885">
        <ele>401.49</ele>
        <time>2016-10-21T08:26:56Z</time>
      </trkpt>
      <trkpt lat="43.57819" lon="6.28886">
        <ele>401.01</ele>
        <time>2016-10-21T08:27:00Z</time>
      </trkpt>
      <trkpt lat="43.57812" lon="6.28888">
        <ele>400.05</ele>
        <time>2016-10-21T08:27:07Z</time>
      </trkpt>
      <trkpt lat="43.57803" lon="6.28887">
        <ele>399.08</ele>
        <time>2016-10-21T08:27:13Z</time>
      </trkpt>
      <trkpt lat="43.57788" lon="6.28884">
        <ele>396.68</ele>
        <time>2016-10-21T08:27:25Z</time>
      </trkpt>
      <trkpt lat="43.57777" lon="6.28881">
        <ele>394.76</ele>
        <time>2016-10-21T08:27:36Z</time>
      </trkpt>
      <trkpt lat="43.57766" lon="6.2887">
        <ele>392.84</ele>
        <time>2016-10-21T08:27:49Z</time>
      </trkpt>
      <trkpt lat="43.57756" lon="6.28871">
        <ele>391.87</ele>
        <time>2016-10-21T08:27:55Z</time>
      </trkpt>
      <trkpt lat="43.57753" lon="6.28871">
        <ele>391.39</ele>
        <time>2016-10-21T08:27:57Z</time>
      </trkpt>
      <trkpt lat="43.57745" lon="6.28867">
        <ele>390.91</ele>
        <time>2016-10-21T08:28:05Z</time>
      </trkpt>
      <trkpt lat="43.57739" lon="6.2886">
        <ele>390.43</ele>
        <time>2016-10-21T08:28:11Z</time>
      </trkpt>
      <trkpt lat="43.57718" lon="6.2884">
        <ele>388.99</ele>
        <time>2016-10-21T08:28:27Z</time>
      </trkpt>
      <trkpt lat="43.57708" lon="6.2883">
        <ele>388.51</ele>
        <time>2016-10-21T08:28:36Z</time>
      </trkpt>
      <trkpt lat="43.57695" lon="6.28807">
        <ele>388.03</ele>
        <time>2016-10-21T08:28:51Z</time>
      </trkpt>
      <trkpt lat="43.57689" lon="6.28796">
        <ele>387.07</ele>
        <time>2016-10-21T08:29:00Z</time>
      </trkpt>
      <trkpt lat="43.57677" lon="6.28782">
        <ele>384.66</ele>
        <time>2016-10-21T08:29:13Z</time>
      </trkpt>
      <trkpt lat="43.57663" lon="6.28769">
        <ele>382.74</ele>
        <time>2016-10-21T08:29:26Z</time>
      </trkpt>
      <trkpt lat="43.5766" lon="6.28767">
        <ele>382.26</ele>
        <time>2016-10-21T08:29:28Z</time>
      </trkpt>
      <trkpt lat="43.57646" lon="6.28762">
        <ele>381.3</ele>
        <time>2016-10-21T08:29:37Z</time>
      </trkpt>
      <trkpt lat="43.57634" lon="6.28765">
        <ele>379.86</ele>
        <time>2016-10-21T08:29:45Z</time>
      </trkpt>
      <trkpt lat="43.57621" lon="6.28765">
        <ele>377.94</ele>
        <time>2016-10-21T08:29:58Z</time>
      </trkpt>
      <trkpt lat="43.5762" lon="6.28764">
        <ele>377.45</ele>
        <time>2016-10-21T08:30:03Z</time>
      </trkpt>
      <trkpt lat="43.57615" lon="6.28762">
        <ele>376.97</ele>
        <time>2016-10-21T08:30:08Z</time>
      </trkpt>
      <trkpt lat="43.57603" lon="6.28756">
        <ele>375.53</ele>
        <time>2016-10-21T08:30:17Z</time>
      </trkpt>
      <trkpt lat="43.57582" lon="6.28752">
        <ele>373.13</ele>
        <time>2016-10-21T08:30:32Z</time>
      </trkpt>
      <trkpt lat="43.57565" lon="6.28744">
        <ele>372.65</ele>
        <time>2016-10-21T08:30:45Z</time>
      </trkpt>
      <trkpt lat="43.57561" lon="6.28743">
        <ele>372.17</ele>
        <time>2016-10-21T08:30:49Z</time>
      </trkpt>
      <trkpt lat="43.5755" lon="6.28737">
        <ele>371.69</ele>
        <time>2016-10-21T08:30:56Z</time>
      </trkpt>
      <trkpt lat="43.57548" lon="6.28734">
        <ele>371.21</ele>
        <time>2016-10-21T08:30:58Z</time>
      </trkpt>
      <trkpt lat="43.57531" lon="6.28727">
        <ele>370.24</ele>
        <time>2016-10-21T08:31:10Z</time>
      </trkpt>
      <trkpt lat="43.57522" lon="6.28715">
        <ele>369.28</ele>
        <time>2016-10-21T08:31:21Z</time>
      </trkpt>
      <trkpt lat="43.57511" lon="6.28714">
        <ele>368.32</ele>
        <time>2016-10-21T08:31:29Z</time>
      </trkpt>
      <trkpt lat="43.57498" lon="6.28723">
        <ele>366.4</ele>
        <time>2016-10-21T08:31:39Z</time>
      </trkpt>
      <trkpt lat="43.57481" lon="6.28728">
        <ele>365.44</ele>
        <time>2016-10-21T08:31:51Z</time>
      </trkpt>
      <trkpt lat="43.5748" lon="6.28728">
        <ele>365.44</ele>
        <time>2016-10-21T08:31:52Z</time>
      </trkpt>
      <trkpt lat="43.57472" lon="6.28734">
        <ele>363.52</ele>
        <time>2016-10-21T08:32:00Z</time>
      </trkpt>
      <trkpt lat="43.57463" lon="6.28734">
        <ele>362.07</ele>
        <time>2016-10-21T08:32:08Z</time>
      </trkpt>
      <trkpt lat="43.57453" lon="6.28732">
        <ele>361.11</ele>
        <time>2016-10-21T08:32:19Z</time>
      </trkpt>
      <trkpt lat="43.57447" lon="6.28716">
        <ele>360.63</ele>
        <time>2016-10-21T08:32:29Z</time>
      </trkpt>
      <trkpt lat="43.57447" lon="6.28695">
        <ele>359.67</ele>
        <time>2016-10-21T08:32:40Z</time>
      </trkpt>
      <trkpt lat="43.57446" lon="6.28689">
        <ele>359.19</ele>
        <time>2016-10-21T08:32:43Z</time>
      </trkpt>
      <trkpt lat="43.57447" lon="6.28679">
        <ele>359.67</ele>
        <time>2016-10-21T08:32:48Z</time>
      </trkpt>
      <trkpt lat="43.57449" lon="6.28669">
        <ele>359.19</ele>
        <time>2016-10-21T08:32:53Z</time>
      </trkpt>
      <trkpt lat="43.57448" lon="6.28661">
        <ele>359.19</ele>
        <time>2016-10-21T08:32:57Z</time>
      </trkpt>
      <trkpt lat="43.5745" lon="6.28634">
        <ele>358.23</ele>
        <time>2016-10-21T08:33:10Z</time>
      </trkpt>
      <trkpt lat="43.57451" lon="6.28619">
        <ele>358.23</ele>
        <time>2016-10-21T08:33:18Z</time>
      </trkpt>
      <trkpt lat="43.57456" lon="6.28604">
        <ele>358.23</ele>
        <time>2016-10-21T08:33:27Z</time>
      </trkpt>
      <trkpt lat="43.57457" lon="6.28596">
        <ele>358.71</ele>
        <time>2016-10-21T08:33:31Z</time>
      </trkpt>
      <trkpt lat="43.5746" lon="6.28584">
        <ele>358.23</ele>
        <time>2016-10-21T08:33:37Z</time>
      </trkpt>
      <trkpt lat="43.5747" lon="6.28558">
        <ele>357.27</ele>
        <time>2016-10-21T08:33:51Z</time>
      </trkpt>
      <trkpt lat="43.57482" lon="6.28542">
        <ele>356.79</ele>
        <time>2016-10-21T08:34:02Z</time>
      </trkpt>
      <trkpt lat="43.57482" lon="6.28517">
        <ele>357.27</ele>
        <time>2016-10-21T08:34:15Z</time>
      </trkpt>
      <trkpt lat="43.57486" lon="6.28492">
        <ele>357.75</ele>
        <time>2016-10-21T08:34:29Z</time>
      </trkpt>
      <trkpt lat="43.57487" lon="6.28491">
        <ele>357.75</ele>
        <time>2016-10-21T08:34:30Z</time>
      </trkpt>
      <trkpt lat="43.57489" lon="6.28481">
        <ele>357.75</ele>
        <time>2016-10-21T08:34:38Z</time>
      </trkpt>
      <trkpt lat="43.57494" lon="6.28479">
        <ele>358.23</ele>
        <time>2016-10-21T08:34:44Z</time>
      </trkpt>
      <trkpt lat="43.57498" lon="6.28477">
        <ele>358.23</ele>
        <time>2016-10-21T08:34:48Z</time>
      </trkpt>
      <trkpt lat="43.57503" lon="6.28478">
        <ele>358.71</ele>
        <time>2016-10-21T08:34:52Z</time>
      </trkpt>
      <trkpt lat="43.57519" lon="6.28469">
        <ele>360.15</ele>
        <time>2016-10-21T08:35:06Z</time>
      </trkpt>
      <trkpt lat="43.57528" lon="6.28466">
        <ele>360.63</ele>
        <time>2016-10-21T08:35:14Z</time>
      </trkpt>
      <trkpt lat="43.5754" lon="6.28456">
        <ele>362.07</ele>
        <time>2016-10-21T08:35:26Z</time>
      </trkpt>
      <trkpt lat="43.57547" lon="6.28452">
        <ele>363.04</ele>
        <time>2016-10-21T08:35:32Z</time>
      </trkpt>
      <trkpt lat="43.5755" lon="6.28451">
        <ele>363.52</ele>
        <time>2016-10-21T08:35:34Z</time>
      </trkpt>
      <trkpt lat="43.57558" lon="6.28445">
        <ele>364</ele>
        <time>2016-10-21T08:35:41Z</time>
      </trkpt>
      <trkpt lat="43.57561" lon="6.28441">
        <ele>364</ele>
        <time>2016-10-21T08:35:44Z</time>
      </trkpt>
      <trkpt lat="43.57576" lon="6.28431">
        <ele>365.44</ele>
        <time>2016-10-21T08:35:57Z</time>
      </trkpt>
      <trkpt lat="43.57596" lon="6.28425">
        <ele>366.4</ele>
        <time>2016-10-21T08:36:10Z</time>
      </trkpt>
      <trkpt lat="43.57604" lon="6.28427">
        <ele>366.88</ele>
        <time>2016-10-21T08:36:16Z</time>
      </trkpt>
      <trkpt lat="43.57611" lon="6.28429">
        <ele>366.88</ele>
        <time>2016-10-21T08:36:21Z</time>
      </trkpt>
      <trkpt lat="43.57615" lon="6.28433">
        <ele>366.4</ele>
        <time>2016-10-21T08:36:24Z</time>
      </trkpt>
      <trkpt lat="43.57631" lon="6.28443">
        <ele>364.96</ele>
        <time>2016-10-21T08:36:36Z</time>
      </trkpt>
      <trkpt lat="43.57647" lon="6.28454">
        <ele>363.52</ele>
        <time>2016-10-21T08:36:49Z</time>
      </trkpt>
      <trkpt lat="43.57649" lon="6.28454">
        <ele>363.52</ele>
        <time>2016-10-21T08:36:50Z</time>
      </trkpt>
      <trkpt lat="43.57655" lon="6.28455">
        <ele>363.04</ele>
        <time>2016-10-21T08:36:55Z</time>
      </trkpt>
      <trkpt lat="43.57661" lon="6.28451">
        <ele>362.55</ele>
        <time>2016-10-21T08:36:59Z</time>
      </trkpt>
      <trkpt lat="43.57675" lon="6.28426">
        <ele>361.59</ele>
        <time>2016-10-21T08:37:13Z</time>
      </trkpt>
      <trkpt lat="43.57679" lon="6.28419">
        <ele>361.11</ele>
        <time>2016-10-21T08:37:17Z</time>
      </trkpt>
      <trkpt lat="43.57679" lon="6.28417">
        <ele>361.11</ele>
        <time>2016-10-21T08:37:19Z</time>
      </trkpt>
      <trkpt lat="43.57682" lon="6.28411">
        <ele>360.63</ele>
        <time>2016-10-21T08:37:23Z</time>
      </trkpt>
      <trkpt lat="43.57686" lon="6.28404">
        <ele>360.63</ele>
        <time>2016-10-21T08:37:28Z</time>
      </trkpt>
      <trkpt lat="43.57691" lon="6.28396">
        <ele>359.67</ele>
        <time>2016-10-21T08:37:34Z</time>
      </trkpt>
      <trkpt lat="43.57697" lon="6.28386">
        <ele>358.71</ele>
        <time>2016-10-21T08:37:42Z</time>
      </trkpt>
      <trkpt lat="43.57708" lon="6.28377">
        <ele>357.75</ele>
        <time>2016-10-21T08:37:53Z</time>
      </trkpt>
      <trkpt lat="43.5771" lon="6.28377">
        <ele>357.27</ele>
        <time>2016-10-21T08:37:56Z</time>
      </trkpt>
      <trkpt lat="43.57716" lon="6.28374">
        <ele>356.79</ele>
        <time>2016-10-21T08:38:02Z</time>
      </trkpt>
      <trkpt lat="43.57724" lon="6.28382">
        <ele>356.31</ele>
        <time>2016-10-21T08:38:11Z</time>
      </trkpt>
      <trkpt lat="43.57735" lon="6.284">
        <ele>354.86</ele>
        <time>2016-10-21T08:38:24Z</time>
      </trkpt>
      <trkpt lat="43.57745" lon="6.28409">
        <ele>352.94</ele>
        <time>2016-10-21T08:38:38Z</time>
      </trkpt>
      <trkpt lat="43.57752" lon="6.28405">
        <ele>351.98</ele>
        <time>2016-10-21T08:38:45Z</time>
      </trkpt>
      <trkpt lat="43.57756" lon="6.284">
        <ele>351.02</ele>
        <time>2016-10-21T08:38:49Z</time>
      </trkpt>
      <trkpt lat="43.57762" lon="6.28394">
        <ele>350.54</ele>
        <time>2016-10-21T08:38:54Z</time>
      </trkpt>
      <trkpt lat="43.57775" lon="6.28381">
        <ele>350.06</ele>
        <time>2016-10-21T08:39:10Z</time>
      </trkpt>
      <trkpt lat="43.57776" lon="6.28381">
        <ele>351.5</ele>
        <time>2016-10-21T08:39:12Z</time>
      </trkpt>
      <trkpt lat="43.57779" lon="6.28382">
        <ele>351.5</ele>
        <time>2016-10-21T08:39:15Z</time>
      </trkpt>
      <trkpt lat="43.57781" lon="6.28382">
        <ele>351.98</ele>
        <time>2016-10-21T08:39:18Z</time>
      </trkpt>
      <trkpt lat="43.57786" lon="6.28383">
        <ele>353.42</ele>
        <time>2016-10-21T08:39:24Z</time>
      </trkpt>
      <trkpt lat="43.57797" lon="6.28379">
        <ele>355.83</ele>
        <time>2016-10-21T08:39:37Z</time>
      </trkpt>
      <trkpt lat="43.57798" lon="6.2838">
        <ele>355.83</ele>
        <time>2016-10-21T08:39:38Z</time>
      </trkpt>
      <trkpt lat="43.57802" lon="6.28382">
        <ele>357.27</ele>
        <time>2016-10-21T08:39:42Z</time>
      </trkpt>
      <trkpt lat="43.57803" lon="6.28383">
        <ele>357.75</ele>
        <time>2016-10-21T08:39:44Z</time>
      </trkpt>
      <trkpt lat="43.57807" lon="6.2838">
        <ele>358.71</ele>
        <time>2016-10-21T08:39:48Z</time>
      </trkpt>
      <trkpt lat="43.57811" lon="6.28374">
        <ele>359.19</ele>
        <time>2016-10-21T08:39:53Z</time>
      </trkpt>
      <trkpt lat="43.57813" lon="6.28368">
        <ele>359.19</ele>
        <time>2016-10-21T08:39:58Z</time>
      </trkpt>
      <trkpt lat="43.57823" lon="6.28358">
        <ele>360.15</ele>
        <time>2016-10-21T08:40:08Z</time>
      </trkpt>
      <trkpt lat="43.57825" lon="6.28343">
        <ele>360.63</ele>
        <time>2016-10-21T08:40:16Z</time>
      </trkpt>
      <trkpt lat="43.57832" lon="6.28335">
        <ele>362.55</ele>
        <time>2016-10-21T08:40:26Z</time>
      </trkpt>
      <trkpt lat="43.57832" lon="6.28338">
        <ele>362.55</ele>
        <time>2016-10-21T08:40:29Z</time>
      </trkpt>
      <trkpt lat="43.57834" lon="6.28346">
        <ele>363.04</ele>
        <time>2016-10-21T08:40:34Z</time>
      </trkpt>
      <trkpt lat="43.57835" lon="6.28349">
        <ele>363.52</ele>
        <time>2016-10-21T08:40:37Z</time>
      </trkpt>
      <trkpt lat="43.57835" lon="6.28358">
        <ele>364.48</ele>
        <time>2016-10-21T08:40:43Z</time>
      </trkpt>
      <trkpt lat="43.57841" lon="6.28367">
        <ele>365.92</ele>
        <time>2016-10-21T08:40:51Z</time>
      </trkpt>
      <trkpt lat="43.57853" lon="6.2838">
        <ele>368.8</ele>
        <time>2016-10-21T08:41:03Z</time>
      </trkpt>
      <trkpt lat="43.57858" lon="6.28383">
        <ele>370.24</ele>
        <time>2016-10-21T08:41:09Z</time>
      </trkpt>
      <trkpt lat="43.57863" lon="6.28388">
        <ele>371.21</ele>
        <time>2016-10-21T08:41:14Z</time>
      </trkpt>
      <trkpt lat="43.57873" lon="6.284">
        <ele>370.24</ele>
        <time>2016-10-21T08:41:24Z</time>
      </trkpt>
      <trkpt lat="43.57888" lon="6.28408">
        <ele>369.28</ele>
        <time>2016-10-21T08:41:36Z</time>
      </trkpt>
      <trkpt lat="43.57898" lon="6.28407">
        <ele>369.28</ele>
        <time>2016-10-21T08:41:44Z</time>
      </trkpt>
      <trkpt lat="43.57899" lon="6.28404">
        <ele>369.28</ele>
        <time>2016-10-21T08:41:46Z</time>
      </trkpt>
      <trkpt lat="43.57904" lon="6.28399">
        <ele>369.76</ele>
        <time>2016-10-21T08:41:50Z</time>
      </trkpt>
      <trkpt lat="43.57914" lon="6.28389">
        <ele>369.28</ele>
        <time>2016-10-21T08:41:58Z</time>
      </trkpt>
      <trkpt lat="43.57929" lon="6.28388">
        <ele>368.8</ele>
        <time>2016-10-21T08:42:10Z</time>
      </trkpt>
      <trkpt lat="43.5794" lon="6.28386">
        <ele>368.8</ele>
        <time>2016-10-21T08:42:18Z</time>
      </trkpt>
      <trkpt lat="43.57943" lon="6.28386">
        <ele>369.28</ele>
        <time>2016-10-21T08:42:20Z</time>
      </trkpt>
      <trkpt lat="43.57948" lon="6.28384">
        <ele>370.24</ele>
        <time>2016-10-21T08:42:24Z</time>
      </trkpt>
      <trkpt lat="43.5795" lon="6.2838">
        <ele>370.73</ele>
        <time>2016-10-21T08:42:27Z</time>
      </trkpt>
      <trkpt lat="43.57952" lon="6.28375">
        <ele>371.21</ele>
        <time>2016-10-21T08:42:30Z</time>
      </trkpt>
      <trkpt lat="43.57971" lon="6.28362">
        <ele>372.65</ele>
        <time>2016-10-21T08:42:45Z</time>
      </trkpt>
      <trkpt lat="43.57985" lon="6.28356">
        <ele>373.61</ele>
        <time>2016-10-21T08:42:57Z</time>
      </trkpt>
      <trkpt lat="43.57998" lon="6.28351">
        <ele>371.69</ele>
        <time>2016-10-21T08:43:08Z</time>
      </trkpt>
      <trkpt lat="43.58002" lon="6.2835">
        <ele>371.69</ele>
        <time>2016-10-21T08:43:12Z</time>
      </trkpt>
      <trkpt lat="43.58016" lon="6.28345">
        <ele>369.76</ele>
        <time>2016-10-21T08:43:21Z</time>
      </trkpt>
      <trkpt lat="43.58023" lon="6.28339">
        <ele>370.24</ele>
        <time>2016-10-21T08:43:29Z</time>
      </trkpt>
      <trkpt lat="43.58025" lon="6.28336">
        <ele>369.76</ele>
        <time>2016-10-21T08:43:31Z</time>
      </trkpt>
      <trkpt lat="43.58032" lon="6.28323">
        <ele>368.32</ele>
        <time>2016-10-21T08:43:42Z</time>
      </trkpt>
      <trkpt lat="43.58035" lon="6.28321">
        <ele>367.84</ele>
        <time>2016-10-21T08:43:46Z</time>
      </trkpt>
      <trkpt lat="43.5804" lon="6.28326">
        <ele>366.88</ele>
        <time>2016-10-21T08:43:51Z</time>
      </trkpt>
      <trkpt lat="43.58038" lon="6.28336">
        <ele>364.96</ele>
        <time>2016-10-21T08:44:00Z</time>
      </trkpt>
      <trkpt lat="43.58045" lon="6.28343">
        <ele>364</ele>
        <time>2016-10-21T08:44:08Z</time>
      </trkpt>
      <trkpt lat="43.58059" lon="6.28343">
        <ele>364</ele>
        <time>2016-10-21T08:44:19Z</time>
      </trkpt>
      <trkpt lat="43.58071" lon="6.28341">
        <ele>365.44</ele>
        <time>2016-10-21T08:44:30Z</time>
      </trkpt>
      <trkpt lat="43.58072" lon="6.28347">
        <ele>366.4</ele>
        <time>2016-10-21T08:44:34Z</time>
      </trkpt>
      <trkpt lat="43.58077" lon="6.28354">
        <ele>366.88</ele>
        <time>2016-10-21T08:44:40Z</time>
      </trkpt>
      <trkpt lat="43.58082" lon="6.28354">
        <ele>368.32</ele>
        <time>2016-10-21T08:44:45Z</time>
      </trkpt>
      <trkpt lat="43.58086" lon="6.28346">
        <ele>368.32</ele>
        <time>2016-10-21T08:44:49Z</time>
      </trkpt>
      <trkpt lat="43.58091" lon="6.28325">
        <ele>366.88</ele>
        <time>2016-10-21T08:45:02Z</time>
      </trkpt>
      <trkpt lat="43.58092" lon="6.28324">
        <ele>366.4</ele>
        <time>2016-10-21T08:45:03Z</time>
      </trkpt>
      <trkpt lat="43.58093" lon="6.28316">
        <ele>365.92</ele>
        <time>2016-10-21T08:45:07Z</time>
      </trkpt>
      <trkpt lat="43.58095" lon="6.28305">
        <ele>365.44</ele>
        <time>2016-10-21T08:45:13Z</time>
      </trkpt>
      <trkpt lat="43.58096" lon="6.28299">
        <ele>364.48</ele>
        <time>2016-10-21T08:45:17Z</time>
      </trkpt>
      <trkpt lat="43.58099" lon="6.2829">
        <ele>363.52</ele>
        <time>2016-10-21T08:45:22Z</time>
      </trkpt>
      <trkpt lat="43.58102" lon="6.2828">
        <ele>365.92</ele>
        <time>2016-10-21T08:45:32Z</time>
      </trkpt>
      <trkpt lat="43.58107" lon="6.28272">
        <ele>369.28</ele>
        <time>2016-10-21T08:45:45Z</time>
      </trkpt>
      <trkpt lat="43.58112" lon="6.2826">
        <ele>372.17</ele>
        <time>2016-10-21T08:45:57Z</time>
      </trkpt>
      <trkpt lat="43.58111" lon="6.28246">
        <ele>375.53</ele>
        <time>2016-10-21T08:46:10Z</time>
      </trkpt>
      <trkpt lat="43.58113" lon="6.28237">
        <ele>376.97</ele>
        <time>2016-10-21T08:46:17Z</time>
      </trkpt>
      <trkpt lat="43.5811" lon="6.28227">
        <ele>380.34</ele>
        <time>2016-10-21T08:46:28Z</time>
      </trkpt>
      <trkpt lat="43.58108" lon="6.28218">
        <ele>381.78</ele>
        <time>2016-10-21T08:46:38Z</time>
      </trkpt>
      <trkpt lat="43.5811" lon="6.28212">
        <ele>382.74</ele>
        <time>2016-10-21T08:46:43Z</time>
      </trkpt>
      <trkpt lat="43.58113" lon="6.2821">
        <ele>383.7</ele>
        <time>2016-10-21T08:46:49Z</time>
      </trkpt>
      <trkpt lat="43.58123" lon="6.28204">
        <ele>386.59</ele>
        <time>2016-10-21T08:47:01Z</time>
      </trkpt>
      <trkpt lat="43.58129" lon="6.28195">
        <ele>388.51</ele>
        <time>2016-10-21T08:47:10Z</time>
      </trkpt>
      <trkpt lat="43.58142" lon="6.28192">
        <ele>389.95</ele>
        <time>2016-10-21T08:47:25Z</time>
      </trkpt>
      <trkpt lat="43.58147" lon="6.28191">
        <ele>390.43</ele>
        <time>2016-10-21T08:47:38Z</time>
      </trkpt>
      <trkpt lat="43.58147" lon="6.2819">
        <ele>390.43</ele>
        <time>2016-10-21T08:47:52Z</time>
      </trkpt>
      <trkpt lat="43.58148" lon="6.2819">
        <ele>390.91</ele>
        <time>2016-10-21T08:48:07Z</time>
      </trkpt>
      <trkpt lat="43.58148" lon="6.28192">
        <ele>390.43</ele>
        <time>2016-10-21T08:48:26Z</time>
      </trkpt>
      <trkpt lat="43.58148" lon="6.28192">
        <ele>390.43</ele>
        <time>2016-10-21T08:48:38Z</time>
      </trkpt>
      <trkpt lat="43.58148" lon="6.28192">
        <ele>390.43</ele>
        <time>2016-10-21T08:49:01Z</time>
      </trkpt>
      <trkpt lat="43.58148" lon="6.28193">
        <ele>390.43</ele>
        <time>2016-10-21T08:49:31Z</time>
      </trkpt>
      <trkpt lat="43.58152" lon="6.28198">
        <ele>390.91</ele>
        <time>2016-10-21T08:49:36Z</time>
      </trkpt>
      <trkpt lat="43.58156" lon="6.28199">
        <ele>390.91</ele>
        <time>2016-10-21T08:49:39Z</time>
      </trkpt>
      <trkpt lat="43.5816" lon="6.28197">
        <ele>390.91</ele>
        <time>2016-10-21T08:49:42Z</time>
      </trkpt>
      <trkpt lat="43.58174" lon="6.2819">
        <ele>388.51</ele>
        <time>2016-10-21T08:49:55Z</time>
      </trkpt>
      <trkpt lat="43.58182" lon="6.28179">
        <ele>385.15</ele>
        <time>2016-10-21T08:50:07Z</time>
      </trkpt>
      <trkpt lat="43.58183" lon="6.28173">
        <ele>384.18</ele>
        <time>2016-10-21T08:50:12Z</time>
      </trkpt>
      <trkpt lat="43.58185" lon="6.28169">
        <ele>383.7</ele>
        <time>2016-10-21T08:50:15Z</time>
      </trkpt>
      <trkpt lat="43.58193" lon="6.28161">
        <ele>382.26</ele>
        <time>2016-10-21T08:50:24Z</time>
      </trkpt>
      <trkpt lat="43.58197" lon="6.28153">
        <ele>381.78</ele>
        <time>2016-10-21T08:50:30Z</time>
      </trkpt>
      <trkpt lat="43.58197" lon="6.2815">
        <ele>381.3</ele>
        <time>2016-10-21T08:50:32Z</time>
      </trkpt>
      <trkpt lat="43.582" lon="6.28146">
        <ele>380.82</ele>
        <time>2016-10-21T08:50:36Z</time>
      </trkpt>
      <trkpt lat="43.58206" lon="6.28135">
        <ele>380.34</ele>
        <time>2016-10-21T08:50:43Z</time>
      </trkpt>
      <trkpt lat="43.58207" lon="6.2813">
        <ele>380.82</ele>
        <time>2016-10-21T08:50:56Z</time>
      </trkpt>
      <trkpt lat="43.58208" lon="6.28128">
        <ele>380.82</ele>
        <time>2016-10-21T08:51:18Z</time>
      </trkpt>
      <trkpt lat="43.58208" lon="6.28128">
        <ele>380.82</ele>
        <time>2016-10-21T08:51:52Z</time>
      </trkpt>
      <trkpt lat="43.58208" lon="6.28127">
        <ele>380.34</ele>
        <time>2016-10-21T08:52:24Z</time>
      </trkpt>
      <trkpt lat="43.58209" lon="6.28126">
        <ele>380.34</ele>
        <time>2016-10-21T08:52:26Z</time>
      </trkpt>
      <trkpt lat="43.58213" lon="6.28118">
        <ele>380.82</ele>
        <time>2016-10-21T08:52:32Z</time>
      </trkpt>
      <trkpt lat="43.58215" lon="6.28106">
        <ele>379.86</ele>
        <time>2016-10-21T08:52:39Z</time>
      </trkpt>
      <trkpt lat="43.58217" lon="6.28103">
        <ele>379.38</ele>
        <time>2016-10-21T08:52:41Z</time>
      </trkpt>
      <trkpt lat="43.58224" lon="6.28092">
        <ele>377.94</ele>
        <time>2016-10-21T08:52:50Z</time>
      </trkpt>
      <trkpt lat="43.5824" lon="6.28078">
        <ele>376.97</ele>
        <time>2016-10-21T08:53:04Z</time>
      </trkpt>
      <trkpt lat="43.58246" lon="6.2807">
        <ele>377.45</ele>
        <time>2016-10-21T08:53:09Z</time>
      </trkpt>
      <trkpt lat="43.58253" lon="6.28061">
        <ele>376.97</ele>
        <time>2016-10-21T08:53:16Z</time>
      </trkpt>
      <trkpt lat="43.58258" lon="6.28047">
        <ele>376.01</ele>
        <time>2016-10-21T08:53:24Z</time>
      </trkpt>
      <trkpt lat="43.58263" lon="6.28032">
        <ele>376.01</ele>
        <time>2016-10-21T08:53:32Z</time>
      </trkpt>
      <trkpt lat="43.58263" lon="6.28029">
        <ele>376.01</ele>
        <time>2016-10-21T08:53:34Z</time>
      </trkpt>
      <trkpt lat="43.58262" lon="6.28026">
        <ele>375.53</ele>
        <time>2016-10-21T08:53:36Z</time>
      </trkpt>
      <trkpt lat="43.58263" lon="6.28024">
        <ele>375.53</ele>
        <time>2016-10-21T08:53:37Z</time>
      </trkpt>
      <trkpt lat="43.58269" lon="6.28018">
        <ele>375.05</ele>
        <time>2016-10-21T08:53:42Z</time>
      </trkpt>
      <trkpt lat="43.58274" lon="6.28013">
        <ele>374.57</ele>
        <time>2016-10-21T08:53:45Z</time>
      </trkpt>
      <trkpt lat="43.58283" lon="6.28">
        <ele>374.09</ele>
        <time>2016-10-21T08:53:53Z</time>
      </trkpt>
      <trkpt lat="43.58283" lon="6.27995">
        <ele>373.13</ele>
        <time>2016-10-21T08:53:56Z</time>
      </trkpt>
      <trkpt lat="43.58281" lon="6.27984">
        <ele>371.69</ele>
        <time>2016-10-21T08:54:02Z</time>
      </trkpt>
      <trkpt lat="43.58282" lon="6.27962">
        <ele>368.8</ele>
        <time>2016-10-21T08:54:16Z</time>
      </trkpt>
      <trkpt lat="43.58281" lon="6.27948">
        <ele>367.36</ele>
        <time>2016-10-21T08:54:22Z</time>
      </trkpt>
      <trkpt lat="43.58282" lon="6.2794">
        <ele>367.84</ele>
        <time>2016-10-21T08:54:27Z</time>
      </trkpt>
      <trkpt lat="43.58284" lon="6.27932">
        <ele>367.36</ele>
        <time>2016-10-21T08:54:32Z</time>
      </trkpt>
      <trkpt lat="43.58281" lon="6.27923">
        <ele>366.88</ele>
        <time>2016-10-21T08:54:37Z</time>
      </trkpt>
      <trkpt lat="43.58278" lon="6.27918">
        <ele>366.4</ele>
        <time>2016-10-21T08:54:40Z</time>
      </trkpt>
      <trkpt lat="43.58275" lon="6.27908">
        <ele>364.96</ele>
        <time>2016-10-21T08:54:45Z</time>
      </trkpt>
      <trkpt lat="43.5828" lon="6.27879">
        <ele>362.07</ele>
        <time>2016-10-21T08:55:01Z</time>
      </trkpt>
      <trkpt lat="43.58281" lon="6.27877">
        <ele>362.07</ele>
        <time>2016-10-21T08:55:02Z</time>
      </trkpt>
      <trkpt lat="43.58282" lon="6.27875">
        <ele>361.59</ele>
        <time>2016-10-21T08:55:04Z</time>
      </trkpt>
      <trkpt lat="43.5829" lon="6.27863">
        <ele>361.11</ele>
        <time>2016-10-21T08:55:13Z</time>
      </trkpt>
      <trkpt lat="43.58306" lon="6.27845">
        <ele>359.67</ele>
        <time>2016-10-21T08:55:30Z</time>
      </trkpt>
      <trkpt lat="43.58323" lon="6.27832">
        <ele>358.23</ele>
        <time>2016-10-21T08:55:42Z</time>
      </trkpt>
      <trkpt lat="43.58327" lon="6.27825">
        <ele>357.75</ele>
        <time>2016-10-21T08:55:47Z</time>
      </trkpt>
      <trkpt lat="43.5833" lon="6.27818">
        <ele>356.79</ele>
        <time>2016-10-21T08:55:51Z</time>
      </trkpt>
      <trkpt lat="43.58332" lon="6.27806">
        <ele>355.34</ele>
        <time>2016-10-21T08:55:58Z</time>
      </trkpt>
      <trkpt lat="43.58332" lon="6.27778">
        <ele>352.46</ele>
        <time>2016-10-21T08:56:13Z</time>
      </trkpt>
      <trkpt lat="43.58333" lon="6.27764">
        <ele>351.5</ele>
        <time>2016-10-21T08:56:21Z</time>
      </trkpt>
      <trkpt lat="43.58333" lon="6.27753">
        <ele>350.06</ele>
        <time>2016-10-21T08:56:27Z</time>
      </trkpt>
      <trkpt lat="43.58332" lon="6.27747">
        <ele>349.1</ele>
        <time>2016-10-21T08:56:31Z</time>
      </trkpt>
      <trkpt lat="43.58322" lon="6.27729">
        <ele>347.65</ele>
        <time>2016-10-21T08:56:42Z</time>
      </trkpt>
      <trkpt lat="43.58319" lon="6.2772">
        <ele>346.21</ele>
        <time>2016-10-21T08:56:48Z</time>
      </trkpt>
      <trkpt lat="43.58325" lon="6.27719">
        <ele>345.25</ele>
        <time>2016-10-21T08:56:52Z</time>
      </trkpt>
      <trkpt lat="43.58328" lon="6.27719">
        <ele>344.77</ele>
        <time>2016-10-21T08:56:54Z</time>
      </trkpt>
      <trkpt lat="43.58332" lon="6.27722">
        <ele>343.81</ele>
        <time>2016-10-21T08:56:58Z</time>
      </trkpt>
      <trkpt lat="43.58352" lon="6.27721">
        <ele>342.37</ele>
        <time>2016-10-21T08:57:12Z</time>
      </trkpt>
      <trkpt lat="43.58355" lon="6.27716">
        <ele>342.37</ele>
        <time>2016-10-21T08:57:21Z</time>
      </trkpt>
      <trkpt lat="43.58355" lon="6.27715">
        <ele>342.37</ele>
        <time>2016-10-21T08:57:25Z</time>
      </trkpt>
      <trkpt lat="43.58354" lon="6.27708">
        <ele>341.89</ele>
        <time>2016-10-21T08:57:38Z</time>
      </trkpt>
      <trkpt lat="43.58355" lon="6.27705">
        <ele>341.89</ele>
        <time>2016-10-21T08:57:42Z</time>
      </trkpt>
      <trkpt lat="43.58347" lon="6.27695">
        <ele>341.41</ele>
        <time>2016-10-21T08:57:51Z</time>
      </trkpt>
      <trkpt lat="43.5833" lon="6.2768">
        <ele>340.92</ele>
        <time>2016-10-21T08:58:06Z</time>
      </trkpt>
      <trkpt lat="43.58308" lon="6.27672">
        <ele>340.92</ele>
        <time>2016-10-21T08:58:21Z</time>
      </trkpt>
      <trkpt lat="43.58306" lon="6.27671">
        <ele>340.92</ele>
        <time>2016-10-21T08:58:23Z</time>
      </trkpt>
      <trkpt lat="43.58304" lon="6.27669">
        <ele>340.92</ele>
        <time>2016-10-21T08:58:25Z</time>
      </trkpt>
      <trkpt lat="43.58296" lon="6.2767">
        <ele>340.92</ele>
        <time>2016-10-21T08:58:36Z</time>
      </trkpt>
      <trkpt lat="43.58293" lon="6.27671">
        <ele>340.92</ele>
        <time>2016-10-21T08:58:57Z</time>
      </trkpt>
      <trkpt lat="43.58291" lon="6.27671">
        <ele>340.92</ele>
        <time>2016-10-21T08:59:17Z</time>
      </trkpt>
      <trkpt lat="43.58287" lon="6.27665">
        <ele>340.44</ele>
        <time>2016-10-21T08:59:31Z</time>
      </trkpt>
      <trkpt lat="43.58271" lon="6.27647">
        <ele>339.96</ele>
        <time>2016-10-21T08:59:47Z</time>
      </trkpt>
      <trkpt lat="43.58265" lon="6.27641">
        <ele>339.96</ele>
        <time>2016-10-21T08:59:52Z</time>
      </trkpt>
      <trkpt lat="43.58254" lon="6.27638">
        <ele>339.48</ele>
        <time>2016-10-21T09:00:03Z</time>
      </trkpt>
      <trkpt lat="43.58246" lon="6.27643">
        <ele>339</ele>
        <time>2016-10-21T09:00:08Z</time>
      </trkpt>
      <trkpt lat="43.58236" lon="6.27655">
        <ele>338.52</ele>
        <time>2016-10-21T09:00:16Z</time>
      </trkpt>
      <trkpt lat="43.58221" lon="6.27673">
        <ele>337.56</ele>
        <time>2016-10-21T09:00:32Z</time>
      </trkpt>
      <trkpt lat="43.58221" lon="6.2768">
        <ele>337.08</ele>
        <time>2016-10-21T09:00:47Z</time>
      </trkpt>
      <trkpt lat="43.5822" lon="6.27681">
        <ele>337.56</ele>
        <time>2016-10-21T09:01:02Z</time>
      </trkpt>
      <trkpt lat="43.58221" lon="6.27681">
        <ele>339</ele>
        <time>2016-10-21T09:01:06Z</time>
      </trkpt>
      <trkpt lat="43.58221" lon="6.27682">
        <ele>337.08</ele>
        <time>2016-10-21T09:01:27Z</time>
      </trkpt>
      <trkpt lat="43.58221" lon="6.27682">
        <ele>336.12</ele>
        <time>2016-10-21T09:01:29Z</time>
      </trkpt>
    </trkseg>
  </trk>
</gpx>